<?xml version="1.0" encoding="UTF-8"?>
<gpx creator="Garmin Connect" version="1.1"
  xsi:schemaLocation="http://www.topografix.com/GPX/1/1 http://www.topografix.com/GPX/11.xsd"
  xmlns:ns3="http://www.garmin.com/xmlschemas/TrackPointExtension/v1"
  xmlns="http://www.topografix.com/GPX/1/1"
  xmlns:xsi="http://www.w3.org/2001/XMLSchema-instance" xmlns:ns2="http://www.garmin.com/xmlschemas/GpxExtensions/v3">
  <metadata>
    <name>S - Dag 1</name>
    <link href="connect.garmin.com">
      <text>Garmin Connect</text>
    </link>
    <time>2025-01-27T10:06:06.000Z</time>
  </metadata>
  <wpt lat="58.896406" lon="16.289996">
    <ele>0.0</ele>
    <name>Kamp dag 1</name>
    <type>CAMPSITE</type>
  </wpt>
  <wpt lat="58.98521644463077" lon="16.28345949928415">
    <ele>0.0</ele>
    <name>Brug</name>
    <type>BRIDGE</type>
  </wpt>
  <wpt lat="58.96382027099144" lon="16.28588433842248">
    <ele>0.0</ele>
    <name>Planken + bron</name>
    <type>WATER</type>
  </wpt>
  <wpt lat="58.94119395560472" lon="16.29885718019785">
    <ele>0.0</ele>
    <name>Watermeer</name>
    <type>WATER</type>
  </wpt>
  <wpt lat="58.92871995804457" lon="16.26745284012684">
    <ele>0.0</ele>
    <name>etappe 28</name>
    <type>TRANSITION</type>
  </wpt>
  <wpt lat="58.92574965130914" lon="16.26802286811883">
    <ele>0.0</ele>
    <name>Waterbron</name>
    <type>WATER</type>
  </wpt>
  <wpt lat="58.89839507753937" lon="16.28855178983926">
    <ele>0.0</ele>
    <name>etappe 28:1</name>
    <type>TRANSITION</type>
  </wpt>
  <wpt lat="58.89817741852492" lon="16.28864541993241">
    <ele>0.0</ele>
    <name>Toilet</name>
    <type>TOILET</type>
  </wpt>
  <trk>
    <name>S - Dag 1</name>
    <trkseg>
      <trkpt lat="58.99630995467305" lon="16.2082807905972">
        <ele>45.83</ele>
        <time>2025-01-27T10:06:06.000Z</time>
      </trkpt>
      <trkpt lat="58.99626427330077" lon="16.208829721435905">
        <ele>45.9</ele>
        <time>2025-01-27T10:06:06.038Z</time>
      </trkpt>
      <trkpt lat="58.99621892720461" lon="16.209374964237213">
        <ele>45.97</ele>
        <time>2025-01-27T10:06:06.114Z</time>
      </trkpt>
      <trkpt lat="58.996210964396596" lon="16.20941092260182">
        <ele>46.07</ele>
        <time>2025-01-27T10:06:06.193Z</time>
      </trkpt>
      <trkpt lat="58.996183974668384" lon="16.209465991705656">
        <ele>46.2</ele>
        <time>2025-01-27T10:06:06.277Z</time>
      </trkpt>
      <trkpt lat="58.9961779396981" lon="16.209502955898643">
        <ele>46.33</ele>
        <time>2025-01-27T10:06:06.364Z</time>
      </trkpt>
      <trkpt lat="58.9961435738951" lon="16.20995918288827">
        <ele>46.48</ele>
        <time>2025-01-27T10:06:06.483Z</time>
      </trkpt>
      <trkpt lat="58.99610920809209" lon="16.210415409877896">
        <ele>46.6</ele>
        <time>2025-01-27T10:06:06.634Z</time>
      </trkpt>
      <trkpt lat="58.99607484228909" lon="16.210871636867523">
        <ele>46.7</ele>
        <time>2025-01-27T10:06:06.816Z</time>
      </trkpt>
      <trkpt lat="58.99604097940028" lon="16.21132199652493">
        <ele>46.85</ele>
        <time>2025-01-27T10:06:07.030Z</time>
      </trkpt>
      <trkpt lat="58.9960209466517" lon="16.211464991793036">
        <ele>47.01</ele>
        <time>2025-01-27T10:06:07.254Z</time>
      </trkpt>
      <trkpt lat="58.99600896053016" lon="16.21149298734963">
        <ele>47.17</ele>
        <time>2025-01-27T10:06:07.481Z</time>
      </trkpt>
      <trkpt lat="58.99598498828709" lon="16.211530957370996">
        <ele>47.36</ele>
        <time>2025-01-27T10:06:07.712Z</time>
      </trkpt>
      <trkpt lat="58.99589898996055" lon="16.21160195209086">
        <ele>47.57</ele>
        <time>2025-01-27T10:06:07.955Z</time>
      </trkpt>
      <trkpt lat="58.99591097608209" lon="16.21177797205746">
        <ele>47.76</ele>
        <time>2025-01-27T10:06:08.210Z</time>
      </trkpt>
      <trkpt lat="58.99591994471848" lon="16.212046947330236">
        <ele>47.95</ele>
        <time>2025-01-27T10:06:08.484Z</time>
      </trkpt>
      <trkpt lat="58.99591793306172" lon="16.212323969230056">
        <ele>48.2</ele>
        <time>2025-01-27T10:06:08.777Z</time>
      </trkpt>
      <trkpt lat="58.9959049411118" lon="16.212645918130875">
        <ele>48.5</ele>
        <time>2025-01-27T10:06:09.092Z</time>
      </trkpt>
      <trkpt lat="58.99585213512182" lon="16.213193088769913">
        <ele>48.77</ele>
        <time>2025-01-27T10:06:09.446Z</time>
      </trkpt>
      <trkpt lat="58.99579924531281" lon="16.21374017558992">
        <ele>49.07</ele>
        <time>2025-01-27T10:06:09.838Z</time>
      </trkpt>
      <trkpt lat="58.99574694223702" lon="16.214281981810927">
        <ele>49.29</ele>
        <time>2025-01-27T10:06:10.268Z</time>
      </trkpt>
      <trkpt lat="58.995693968608975" lon="16.214557997882366">
        <ele>49.48</ele>
        <time>2025-01-27T10:06:10.719Z</time>
      </trkpt>
      <trkpt lat="58.99563596583903" lon="16.21473695151508">
        <ele>49.65</ele>
        <time>2025-01-27T10:06:11.184Z</time>
      </trkpt>
      <trkpt lat="58.99550898000598" lon="16.215032916516066">
        <ele>49.75</ele>
        <time>2025-01-27T10:06:11.676Z</time>
      </trkpt>
      <trkpt lat="58.9954699203372" lon="16.215162919834256">
        <ele>49.81</ele>
        <time>2025-01-27T10:06:12.178Z</time>
      </trkpt>
      <trkpt lat="58.99544293060899" lon="16.215247996151447">
        <ele>49.87</ele>
        <time>2025-01-27T10:06:12.687Z</time>
      </trkpt>
      <trkpt lat="58.99535793811083" lon="16.215464919805527">
        <ele>49.95</ele>
        <time>2025-01-27T10:06:13.215Z</time>
      </trkpt>
      <trkpt lat="58.995285937562585" lon="16.215672958642244">
        <ele>50.02</ele>
        <time>2025-01-27T10:06:13.760Z</time>
      </trkpt>
      <trkpt lat="58.99525894783437" lon="16.21577396057546">
        <ele>50.05</ele>
        <time>2025-01-27T10:06:14.313Z</time>
      </trkpt>
      <trkpt lat="58.99521192535758" lon="16.2159619666636">
        <ele>50.1</ele>
        <time>2025-01-27T10:06:14.880Z</time>
      </trkpt>
      <trkpt lat="58.99514394812286" lon="16.216165982186794">
        <ele>50.14</ele>
        <time>2025-01-27T10:06:15.464Z</time>
      </trkpt>
      <trkpt lat="58.995004557073116" lon="16.216594632714987">
        <ele>50.19</ele>
        <time>2025-01-27T10:06:16.083Z</time>
      </trkpt>
      <trkpt lat="58.99486592039466" lon="16.21702093631029">
        <ele>50.28</ele>
        <time>2025-01-27T10:06:16.737Z</time>
      </trkpt>
      <trkpt lat="58.994723092764616" lon="16.21745520271361">
        <ele>50.34</ele>
        <time>2025-01-27T10:06:17.426Z</time>
      </trkpt>
      <trkpt lat="58.99458093568683" lon="16.217886954545975">
        <ele>50.41</ele>
        <time>2025-01-27T10:06:18.151Z</time>
      </trkpt>
      <trkpt lat="58.99447616189718" lon="16.218212340027094">
        <ele>50.47</ele>
        <time>2025-01-27T10:06:18.902Z</time>
      </trkpt>
      <trkpt lat="58.99437197484076" lon="16.218535965308547">
        <ele>50.61</ele>
        <time>2025-01-27T10:06:19.679Z</time>
      </trkpt>
      <trkpt lat="58.99431397207081" lon="16.21871592476964">
        <ele>50.66</ele>
        <time>2025-01-27T10:06:20.471Z</time>
      </trkpt>
      <trkpt lat="58.994278935715556" lon="16.21884391643107">
        <ele>50.71</ele>
        <time>2025-01-27T10:06:21.273Z</time>
      </trkpt>
      <trkpt lat="58.99424096569419" lon="16.218947935849428">
        <ele>50.77</ele>
        <time>2025-01-27T10:06:22.084Z</time>
      </trkpt>
      <trkpt lat="58.99421397596598" lon="16.219020942226052">
        <ele>50.79</ele>
        <time>2025-01-27T10:06:22.901Z</time>
      </trkpt>
      <trkpt lat="58.99410794489086" lon="16.21927499771118">
        <ele>50.75</ele>
        <time>2025-01-27T10:06:23.741Z</time>
      </trkpt>
      <trkpt lat="58.993989676237106" lon="16.21958278119564">
        <ele>50.67</ele>
        <time>2025-01-27T10:06:24.607Z</time>
      </trkpt>
      <trkpt lat="58.99387199431658" lon="16.219888972118497">
        <ele>50.61</ele>
        <time>2025-01-27T10:06:25.499Z</time>
      </trkpt>
      <trkpt lat="58.993716929107904" lon="16.220272947102785">
        <ele>50.53</ele>
        <time>2025-01-27T10:06:26.425Z</time>
      </trkpt>
      <trkpt lat="58.993675941601396" lon="16.220378978177905">
        <ele>50.41</ele>
        <time>2025-01-27T10:06:27.360Z</time>
      </trkpt>
      <trkpt lat="58.99353194050491" lon="16.22075063176453">
        <ele>50.29</ele>
        <time>2025-01-27T10:06:28.327Z</time>
      </trkpt>
      <trkpt lat="58.99338785558939" lon="16.221122285351157">
        <ele>50.12</ele>
        <time>2025-01-27T10:06:29.326Z</time>
      </trkpt>
      <trkpt lat="58.993244944140315" lon="16.22149092145264">
        <ele>49.95</ele>
        <time>2025-01-27T10:06:30.357Z</time>
      </trkpt>
      <trkpt lat="58.99321694858372" lon="16.22157398611307">
        <ele>49.79</ele>
        <time>2025-01-27T10:06:31.395Z</time>
      </trkpt>
      <trkpt lat="58.99317093193531" lon="16.22191596776247">
        <ele>49.6</ele>
        <time>2025-01-27T10:06:32.457Z</time>
      </trkpt>
      <trkpt lat="58.99314193055034" lon="16.222307989373803">
        <ele>49.42</ele>
        <time>2025-01-27T10:06:33.547Z</time>
      </trkpt>
      <trkpt lat="58.993114940822124" lon="16.222509993240237">
        <ele>49.28</ele>
        <time>2025-01-27T10:06:34.651Z</time>
      </trkpt>
      <trkpt lat="58.993090968579054" lon="16.22275792993605">
        <ele>49.15</ele>
        <time>2025-01-27T10:06:35.772Z</time>
      </trkpt>
      <trkpt lat="58.9930799882859" lon="16.222938979044557">
        <ele>49.0</ele>
        <time>2025-01-27T10:06:36.906Z</time>
      </trkpt>
      <trkpt lat="58.99307898245752" lon="16.223122961819172">
        <ele>48.86</ele>
        <time>2025-01-27T10:06:38.053Z</time>
      </trkpt>
      <trkpt lat="58.99308292195201" lon="16.223322954028845">
        <ele>48.73</ele>
        <time>2025-01-27T10:06:39.213Z</time>
      </trkpt>
      <trkpt lat="58.99309993721545" lon="16.223621936514974">
        <ele>48.59</ele>
        <time>2025-01-27T10:06:40.394Z</time>
      </trkpt>
      <trkpt lat="58.99313195608556" lon="16.224030973389745">
        <ele>48.47</ele>
        <time>2025-01-27T10:06:41.604Z</time>
      </trkpt>
      <trkpt lat="58.9931679982692" lon="16.22453698888421">
        <ele>48.34</ele>
        <time>2025-01-27T10:06:42.849Z</time>
      </trkpt>
      <trkpt lat="58.993177972733974" lon="16.224650982767344">
        <ele>48.22</ele>
        <time>2025-01-27T10:06:44.102Z</time>
      </trkpt>
      <trkpt lat="58.99312198162079" lon="16.22466892004013">
        <ele>48.1</ele>
        <time>2025-01-27T10:06:45.363Z</time>
      </trkpt>
      <trkpt lat="58.993097925558686" lon="16.224675960838795">
        <ele>47.99</ele>
        <time>2025-01-27T10:06:46.627Z</time>
      </trkpt>
      <trkpt lat="58.99306993000209" lon="16.224718960002065">
        <ele>47.88</ele>
        <time>2025-01-27T10:06:47.896Z</time>
      </trkpt>
      <trkpt lat="58.99303598329425" lon="16.22484192252159">
        <ele>47.75</ele>
        <time>2025-01-27T10:06:49.174Z</time>
      </trkpt>
      <trkpt lat="58.993029948323965" lon="16.22487796470523">
        <ele>47.64</ele>
        <time>2025-01-27T10:06:50.455Z</time>
      </trkpt>
      <trkpt lat="58.993031959980726" lon="16.224930938333273">
        <ele>47.55</ele>
        <time>2025-01-27T10:06:51.739Z</time>
      </trkpt>
      <trkpt lat="58.99304092861712" lon="16.2250089738518">
        <ele>47.47</ele>
        <time>2025-01-27T10:06:53.029Z</time>
      </trkpt>
      <trkpt lat="58.993096919730306" lon="16.225110981613398">
        <ele>47.41</ele>
        <time>2025-01-27T10:06:54.329Z</time>
      </trkpt>
      <trkpt lat="58.99310396052897" lon="16.22516194358468">
        <ele>47.37</ele>
        <time>2025-01-27T10:06:55.633Z</time>
      </trkpt>
      <trkpt lat="58.99314410984516" lon="16.225642058998346">
        <ele>47.33</ele>
        <time>2025-01-27T10:06:56.970Z</time>
      </trkpt>
      <trkpt lat="58.993183923885226" lon="16.226118989288807">
        <ele>47.32</ele>
        <time>2025-01-27T10:06:58.341Z</time>
      </trkpt>
      <trkpt lat="58.993182918056846" lon="16.226216973736882">
        <ele>47.32</ele>
        <time>2025-01-27T10:06:59.719Z</time>
      </trkpt>
      <trkpt lat="58.99317394942045" lon="16.226264918223023">
        <ele>47.33</ele>
        <time>2025-01-27T10:07:01.100Z</time>
      </trkpt>
      <trkpt lat="58.993160957470536" lon="16.226312946528196">
        <ele>47.37</ele>
        <time>2025-01-27T10:07:02.485Z</time>
      </trkpt>
      <trkpt lat="58.99311896413565" lon="16.226389976218343">
        <ele>47.44</ele>
        <time>2025-01-27T10:07:03.878Z</time>
      </trkpt>
      <trkpt lat="58.99291595444083" lon="16.226573958992958">
        <ele>47.51</ele>
        <time>2025-01-27T10:07:05.300Z</time>
      </trkpt>
      <trkpt lat="58.992712860926986" lon="16.226757941767573">
        <ele>47.68</ele>
        <time>2025-01-27T10:07:06.752Z</time>
      </trkpt>
      <trkpt lat="58.99251094087958" lon="16.226940918713808">
        <ele>47.88</ele>
        <time>2025-01-27T10:07:08.234Z</time>
      </trkpt>
      <trkpt lat="58.992248168215156" lon="16.22714619152248">
        <ele>48.09</ele>
        <time>2025-01-27T10:07:09.754Z</time>
      </trkpt>
      <trkpt lat="58.99198547936976" lon="16.22735138051212">
        <ele>48.19</ele>
        <time>2025-01-27T10:07:11.312Z</time>
      </trkpt>
      <trkpt lat="58.99172270670533" lon="16.22755665332079">
        <ele>48.3</ele>
        <time>2025-01-27T10:07:12.908Z</time>
      </trkpt>
      <trkpt lat="58.991459934040904" lon="16.22776184231043">
        <ele>48.56</ele>
        <time>2025-01-27T10:07:14.542Z</time>
      </trkpt>
      <trkpt lat="58.99119724519551" lon="16.2279671151191">
        <ele>48.9</ele>
        <time>2025-01-27T10:07:16.214Z</time>
      </trkpt>
      <trkpt lat="58.99093447253108" lon="16.22817230410874">
        <ele>49.17</ele>
        <time>2025-01-27T10:07:17.923Z</time>
      </trkpt>
      <trkpt lat="58.99067496880889" lon="16.228374978527427">
        <ele>49.46</ele>
        <time>2025-01-27T10:07:19.670Z</time>
      </trkpt>
      <trkpt lat="58.99058796465397" lon="16.228419989347458">
        <ele>49.79</ele>
        <time>2025-01-27T10:07:21.429Z</time>
      </trkpt>
      <trkpt lat="58.99047799408436" lon="16.22842694632709">
        <ele>50.14</ele>
        <time>2025-01-27T10:07:23.203Z</time>
      </trkpt>
      <trkpt lat="58.99034899659455" lon="16.22840297408402">
        <ele>50.53</ele>
        <time>2025-01-27T10:07:24.994Z</time>
      </trkpt>
      <trkpt lat="58.99033692665398" lon="16.22851193882525">
        <ele>50.94</ele>
        <time>2025-01-27T10:07:26.793Z</time>
      </trkpt>
      <trkpt lat="58.99032996967435" lon="16.228609923273325">
        <ele>51.41</ele>
        <time>2025-01-27T10:07:28.598Z</time>
      </trkpt>
      <trkpt lat="58.99033793248236" lon="16.22863599099219">
        <ele>51.9</ele>
        <time>2025-01-27T10:07:30.406Z</time>
      </trkpt>
      <trkpt lat="58.990405993536115" lon="16.22868695296347">
        <ele>52.44</ele>
        <time>2025-01-27T10:07:32.223Z</time>
      </trkpt>
      <trkpt lat="58.99043692275882" lon="16.2287269346416">
        <ele>53.0</ele>
        <time>2025-01-27T10:07:34.045Z</time>
      </trkpt>
      <trkpt lat="58.99045594967902" lon="16.228800946846604">
        <ele>53.61</ele>
        <time>2025-01-27T10:07:35.873Z</time>
      </trkpt>
      <trkpt lat="58.9904619846493" lon="16.228865990415215">
        <ele>54.24</ele>
        <time>2025-01-27T10:07:37.706Z</time>
      </trkpt>
      <trkpt lat="58.9904670137912" lon="16.22938164509833">
        <ele>55.0</ele>
        <time>2025-01-27T10:07:39.574Z</time>
      </trkpt>
      <trkpt lat="58.990471959114075" lon="16.229893947020173">
        <ele>55.73</ele>
        <time>2025-01-27T10:07:41.477Z</time>
      </trkpt>
      <trkpt lat="58.99048998020589" lon="16.230405997484922">
        <ele>56.51</ele>
        <time>2025-01-27T10:07:43.416Z</time>
      </trkpt>
      <trkpt lat="58.99052795022726" lon="16.230970937758684">
        <ele>57.26</ele>
        <time>2025-01-27T10:07:45.394Z</time>
      </trkpt>
      <trkpt lat="58.99056198075414" lon="16.23134694993496">
        <ele>58.04</ele>
        <time>2025-01-27T10:07:47.399Z</time>
      </trkpt>
      <trkpt lat="58.99060992524028" lon="16.23173595406115">
        <ele>58.8</ele>
        <time>2025-01-27T10:07:49.431Z</time>
      </trkpt>
      <trkpt lat="58.99066993966699" lon="16.232145996764302">
        <ele>59.52</ele>
        <time>2025-01-27T10:07:51.493Z</time>
      </trkpt>
      <trkpt lat="58.990749986842275" lon="16.23259593732655">
        <ele>60.25</ele>
        <time>2025-01-27T10:07:53.587Z</time>
      </trkpt>
      <trkpt lat="58.99082098156214" lon="16.232946971431375">
        <ele>60.98</ele>
        <time>2025-01-27T10:07:55.707Z</time>
      </trkpt>
      <trkpt lat="58.99089918471873" lon="16.233272440731525">
        <ele>61.7</ele>
        <time>2025-01-27T10:07:57.852Z</time>
      </trkpt>
      <trkpt lat="58.99097696878016" lon="16.233595982193947">
        <ele>62.38</ele>
        <time>2025-01-27T10:08:00.022Z</time>
      </trkpt>
      <trkpt lat="58.99094897322357" lon="16.233639987185597">
        <ele>62.99</ele>
        <time>2025-01-27T10:08:02.197Z</time>
      </trkpt>
      <trkpt lat="58.99092894047499" lon="16.233696984127164">
        <ele>63.55</ele>
        <time>2025-01-27T10:08:04.376Z</time>
      </trkpt>
      <trkpt lat="58.990921983495355" lon="16.233769990503788">
        <ele>64.06</ele>
        <time>2025-01-27T10:08:06.560Z</time>
      </trkpt>
      <trkpt lat="58.990905387327075" lon="16.23432327993214">
        <ele>64.52</ele>
        <time>2025-01-27T10:08:08.783Z</time>
      </trkpt>
      <trkpt lat="58.99088895879686" lon="16.23487296514213">
        <ele>64.91</ele>
        <time>2025-01-27T10:08:11.044Z</time>
      </trkpt>
      <trkpt lat="58.99088996462524" lon="16.23543296009302">
        <ele>65.22</ele>
        <time>2025-01-27T10:08:13.343Z</time>
      </trkpt>
      <trkpt lat="58.99087395519018" lon="16.235590958967805">
        <ele>65.46</ele>
        <time>2025-01-27T10:08:15.653Z</time>
      </trkpt>
      <trkpt lat="58.99081829935312" lon="16.2359590921551">
        <ele>65.65</ele>
        <time>2025-01-27T10:08:17.990Z</time>
      </trkpt>
      <trkpt lat="58.99076297879219" lon="16.236324962228537">
        <ele>65.77</ele>
        <time>2025-01-27T10:08:20.353Z</time>
      </trkpt>
      <trkpt lat="58.99070497602224" lon="16.23662897385657">
        <ele>65.93</ele>
        <time>2025-01-27T10:08:22.739Z</time>
      </trkpt>
      <trkpt lat="58.990667928010225" lon="16.23676098883152">
        <ele>65.93</ele>
        <time>2025-01-27T10:08:25.135Z</time>
      </trkpt>
      <trkpt lat="58.99058167822659" lon="16.237018648535013">
        <ele>65.92</ele>
        <time>2025-01-27T10:08:27.552Z</time>
      </trkpt>
      <trkpt lat="58.990495931357145" lon="16.237274967134">
        <ele>65.75</ele>
        <time>2025-01-27T10:08:29.990Z</time>
      </trkpt>
      <trkpt lat="58.99037196300924" lon="16.23753597959876">
        <ele>65.42</ele>
        <time>2025-01-27T10:08:32.453Z</time>
      </trkpt>
      <trkpt lat="58.99018093943596" lon="16.237808978185058">
        <ele>64.72</ele>
        <time>2025-01-27T10:08:34.947Z</time>
      </trkpt>
      <trkpt lat="58.98999905213714" lon="16.23806554824114">
        <ele>63.91</ele>
        <time>2025-01-27T10:08:37.471Z</time>
      </trkpt>
      <trkpt lat="58.9898179192096" lon="16.238320944830775">
        <ele>63.07</ele>
        <time>2025-01-27T10:08:40.025Z</time>
      </trkpt>
      <trkpt lat="58.989715995267034" lon="16.23845597729087">
        <ele>62.3</ele>
        <time>2025-01-27T10:08:42.596Z</time>
      </trkpt>
      <trkpt lat="58.989612981677055" lon="16.23856594786048">
        <ele>61.53</ele>
        <time>2025-01-27T10:08:45.183Z</time>
      </trkpt>
      <trkpt lat="58.989742984995246" lon="16.239006919786334">
        <ele>60.86</ele>
        <time>2025-01-27T10:08:47.805Z</time>
      </trkpt>
      <trkpt lat="58.98981397971511" lon="16.239196937531233">
        <ele>60.22</ele>
        <time>2025-01-27T10:08:50.443Z</time>
      </trkpt>
      <trkpt lat="58.989848932251334" lon="16.2392779905349">
        <ele>59.58</ele>
        <time>2025-01-27T10:08:53.088Z</time>
      </trkpt>
      <trkpt lat="58.98987399414182" lon="16.23931797221303">
        <ele>58.99</ele>
        <time>2025-01-27T10:08:55.737Z</time>
      </trkpt>
      <trkpt lat="58.989739967510104" lon="16.23972298577428">
        <ele>58.3</ele>
        <time>2025-01-27T10:08:58.420Z</time>
      </trkpt>
      <trkpt lat="58.98959990590811" lon="16.24017560854554">
        <ele>57.72</ele>
        <time>2025-01-27T10:09:01.139Z</time>
      </trkpt>
      <trkpt lat="58.98945984430611" lon="16.240628231316805">
        <ele>57.23</ele>
        <time>2025-01-27T10:09:03.894Z</time>
      </trkpt>
      <trkpt lat="58.98932095617056" lon="16.24107699841261">
        <ele>56.91</ele>
        <time>2025-01-27T10:09:06.686Z</time>
      </trkpt>
      <trkpt lat="58.98925297893584" lon="16.241257963702083">
        <ele>56.69</ele>
        <time>2025-01-27T10:09:09.493Z</time>
      </trkpt>
      <trkpt lat="58.989202938973904" lon="16.241367934271693">
        <ele>56.52</ele>
        <time>2025-01-27T10:09:12.310Z</time>
      </trkpt>
      <trkpt lat="58.98914594203234" lon="16.24149098061025">
        <ele>56.44</ele>
        <time>2025-01-27T10:09:15.139Z</time>
      </trkpt>
      <trkpt lat="58.989163963124156" lon="16.24154998920858">
        <ele>56.46</ele>
        <time>2025-01-27T10:09:17.972Z</time>
      </trkpt>
      <trkpt lat="58.989097997546196" lon="16.241792980581522">
        <ele>56.56</ele>
        <time>2025-01-27T10:09:20.824Z</time>
      </trkpt>
      <trkpt lat="58.98901174776256" lon="16.24207327142358">
        <ele>56.77</ele>
        <time>2025-01-27T10:09:23.699Z</time>
      </trkpt>
      <trkpt lat="58.988925917074084" lon="16.242351969704032">
        <ele>57.07</ele>
        <time>2025-01-27T10:09:26.596Z</time>
      </trkpt>
      <trkpt lat="58.988829692825675" lon="16.24266989529133">
        <ele>57.53</ele>
        <time>2025-01-27T10:09:29.519Z</time>
      </trkpt>
      <trkpt lat="58.988733971491456" lon="16.242985976859927">
        <ele>58.03</ele>
        <time>2025-01-27T10:09:32.467Z</time>
      </trkpt>
      <trkpt lat="58.988712932914495" lon="16.24307499267161">
        <ele>58.43</ele>
        <time>2025-01-27T10:09:35.422Z</time>
      </trkpt>
      <trkpt lat="58.98870195262134" lon="16.24316291883588">
        <ele>58.86</ele>
        <time>2025-01-27T10:09:38.383Z</time>
      </trkpt>
      <trkpt lat="58.98870094679296" lon="16.24322896823287">
        <ele>59.31</ele>
        <time>2025-01-27T10:09:41.348Z</time>
      </trkpt>
      <trkpt lat="58.98868099786341" lon="16.243234919384122">
        <ele>59.75</ele>
        <time>2025-01-27T10:09:44.316Z</time>
      </trkpt>
      <trkpt lat="58.98859298788011" lon="16.243406999856234">
        <ele>60.25</ele>
        <time>2025-01-27T10:09:47.301Z</time>
      </trkpt>
      <trkpt lat="58.98851294070482" lon="16.243453938513994">
        <ele>60.73</ele>
        <time>2025-01-27T10:09:50.297Z</time>
      </trkpt>
      <trkpt lat="58.98839693516493" lon="16.243646973744035">
        <ele>61.23</ele>
        <time>2025-01-27T10:09:53.313Z</time>
      </trkpt>
      <trkpt lat="58.988368939608335" lon="16.243598945438862">
        <ele>61.61</ele>
        <time>2025-01-27T10:09:56.334Z</time>
      </trkpt>
      <trkpt lat="58.98832795210183" lon="16.243579918518662">
        <ele>61.97</ele>
        <time>2025-01-27T10:09:59.361Z</time>
      </trkpt>
      <trkpt lat="58.988166684284806" lon="16.2435934972018">
        <ele>62.3</ele>
        <time>2025-01-27T10:10:02.410Z</time>
      </trkpt>
      <trkpt lat="58.988005919381976" lon="16.243606992065907">
        <ele>62.55</ele>
        <time>2025-01-27T10:10:05.480Z</time>
      </trkpt>
      <trkpt lat="58.98797398433089" lon="16.243618978187442">
        <ele>62.82</ele>
        <time>2025-01-27T10:10:08.554Z</time>
      </trkpt>
      <trkpt lat="58.98794892244041" lon="16.243641944602132">
        <ele>63.07</ele>
        <time>2025-01-27T10:10:11.632Z</time>
      </trkpt>
      <trkpt lat="58.98791095241904" lon="16.243728948757052">
        <ele>63.29</ele>
        <time>2025-01-27T10:10:14.718Z</time>
      </trkpt>
      <trkpt lat="58.987893937155604" lon="16.24383196234703">
        <ele>63.51</ele>
        <time>2025-01-27T10:10:17.812Z</time>
      </trkpt>
      <trkpt lat="58.98790651001036" lon="16.244406877085567">
        <ele>63.75</ele>
        <time>2025-01-27T10:10:20.945Z</time>
      </trkpt>
      <trkpt lat="58.98791899904609" lon="16.244977936148643">
        <ele>63.86</ele>
        <time>2025-01-27T10:10:24.118Z</time>
      </trkpt>
      <trkpt lat="58.98787792772055" lon="16.244984976947308">
        <ele>63.99</ele>
        <time>2025-01-27T10:10:27.296Z</time>
      </trkpt>
      <trkpt lat="58.98767491802573" lon="16.245133923366666">
        <ele>64.08</ele>
        <time>2025-01-27T10:10:30.503Z</time>
      </trkpt>
      <trkpt lat="58.98775773122907" lon="16.245489483699203">
        <ele>64.19</ele>
        <time>2025-01-27T10:10:33.737Z</time>
      </trkpt>
      <trkpt lat="58.98783995769918" lon="16.245842948555946">
        <ele>64.36</ele>
        <time>2025-01-27T10:10:36.998Z</time>
      </trkpt>
      <trkpt lat="58.9879269618541" lon="16.246265983209014">
        <ele>64.51</ele>
        <time>2025-01-27T10:10:40.290Z</time>
      </trkpt>
      <trkpt lat="58.98798798210919" lon="16.24653898179531">
        <ele>64.61</ele>
        <time>2025-01-27T10:10:43.603Z</time>
      </trkpt>
      <trkpt lat="58.98797096684575" lon="16.246829917654395">
        <ele>64.72</ele>
        <time>2025-01-27T10:10:46.936Z</time>
      </trkpt>
      <trkpt lat="58.98803994990885" lon="16.247083973139524">
        <ele>64.81</ele>
        <time>2025-01-27T10:10:50.289Z</time>
      </trkpt>
      <trkpt lat="58.98811496794224" lon="16.247301986441016">
        <ele>64.91</ele>
        <time>2025-01-27T10:10:53.660Z</time>
      </trkpt>
      <trkpt lat="58.98806392215192" lon="16.247392930090427">
        <ele>65.07</ele>
        <time>2025-01-27T10:10:57.040Z</time>
      </trkpt>
      <trkpt lat="58.987938947975636" lon="16.24767892062664">
        <ele>65.23</ele>
        <time>2025-01-27T10:11:00.446Z</time>
      </trkpt>
      <trkpt lat="58.987747924402356" lon="16.248057950288057">
        <ele>65.46</ele>
        <time>2025-01-27T10:11:03.889Z</time>
      </trkpt>
      <trkpt lat="58.9876869879663" lon="16.24812299385667">
        <ele>65.64</ele>
        <time>2025-01-27T10:11:07.341Z</time>
      </trkpt>
      <trkpt lat="58.98763292469084" lon="16.248157946392894">
        <ele>65.84</ele>
        <time>2025-01-27T10:11:10.800Z</time>
      </trkpt>
      <trkpt lat="58.98736797273159" lon="16.24823992140591">
        <ele>66.0</ele>
        <time>2025-01-27T10:11:14.295Z</time>
      </trkpt>
      <trkpt lat="58.98737199604511" lon="16.248824978247285">
        <ele>66.24</ele>
        <time>2025-01-27T10:11:17.831Z</time>
      </trkpt>
      <trkpt lat="58.98744416423142" lon="16.24919663183391">
        <ele>66.6</ele>
        <time>2025-01-27T10:11:21.394Z</time>
      </trkpt>
      <trkpt lat="58.9875159971416" lon="16.24956593848765">
        <ele>66.98</ele>
        <time>2025-01-27T10:11:24.984Z</time>
      </trkpt>
      <trkpt lat="58.987566623836756" lon="16.2499622348696">
        <ele>67.31</ele>
        <time>2025-01-27T10:11:28.602Z</time>
      </trkpt>
      <trkpt lat="58.98761699907482" lon="16.250355932861567">
        <ele>67.61</ele>
        <time>2025-01-27T10:11:32.248Z</time>
      </trkpt>
      <trkpt lat="58.98769595660269" lon="16.250801933929324">
        <ele>67.82</ele>
        <time>2025-01-27T10:11:35.927Z</time>
      </trkpt>
      <trkpt lat="58.987828977406025" lon="16.251038974151015">
        <ele>68.09</ele>
        <time>2025-01-27T10:11:39.630Z</time>
      </trkpt>
      <trkpt lat="58.987980941310525" lon="16.25124298967421">
        <ele>68.35</ele>
        <time>2025-01-27T10:11:43.358Z</time>
      </trkpt>
      <trkpt lat="58.988085966557264" lon="16.25145899131894">
        <ele>68.66</ele>
        <time>2025-01-27T10:11:47.106Z</time>
      </trkpt>
      <trkpt lat="58.98815897293389" lon="16.251691924408078">
        <ele>69.0</ele>
        <time>2025-01-27T10:11:50.873Z</time>
      </trkpt>
      <trkpt lat="58.988279923796654" lon="16.251982944086194">
        <ele>69.33</ele>
        <time>2025-01-27T10:11:54.666Z</time>
      </trkpt>
      <trkpt lat="58.98828696459532" lon="16.252477979287505">
        <ele>69.67</ele>
        <time>2025-01-27T10:11:58.493Z</time>
      </trkpt>
      <trkpt lat="58.98831395432353" lon="16.252698926255107">
        <ele>69.97</ele>
        <time>2025-01-27T10:12:02.336Z</time>
      </trkpt>
      <trkpt lat="58.988279923796654" lon="16.252829935401678">
        <ele>70.24</ele>
        <time>2025-01-27T10:12:06.189Z</time>
      </trkpt>
      <trkpt lat="58.988300962373614" lon="16.253141993656754">
        <ele>70.53</ele>
        <time>2025-01-27T10:12:10.064Z</time>
      </trkpt>
      <trkpt lat="58.988374723121524" lon="16.25364507548511">
        <ele>70.86</ele>
        <time>2025-01-27T10:12:13.975Z</time>
      </trkpt>
      <trkpt lat="58.98844798095524" lon="16.25414497219026">
        <ele>71.12</ele>
        <time>2025-01-27T10:12:17.922Z</time>
      </trkpt>
      <trkpt lat="58.98846097290516" lon="16.254494581371546">
        <ele>71.29</ele>
        <time>2025-01-27T10:12:21.893Z</time>
      </trkpt>
      <trkpt lat="58.988473964855075" lon="16.254841927438974">
        <ele>71.44</ele>
        <time>2025-01-27T10:12:25.888Z</time>
      </trkpt>
      <trkpt lat="58.98843498900533" lon="16.25504393130541">
        <ele>71.55</ele>
        <time>2025-01-27T10:12:29.898Z</time>
      </trkpt>
      <trkpt lat="58.98850196041167" lon="16.255213916301727">
        <ele>71.65</ele>
        <time>2025-01-27T10:12:33.922Z</time>
      </trkpt>
      <trkpt lat="58.98857597261667" lon="16.25543494708836">
        <ele>71.75</ele>
        <time>2025-01-27T10:12:37.965Z</time>
      </trkpt>
      <trkpt lat="58.988581923767924" lon="16.255682967603207">
        <ele>71.75</ele>
        <time>2025-01-27T10:12:42.025Z</time>
      </trkpt>
      <trkpt lat="58.98864294402301" lon="16.255955966189504">
        <ele>71.72</ele>
        <time>2025-01-27T10:12:46.105Z</time>
      </trkpt>
      <trkpt lat="58.988708993420005" lon="16.256297947838902">
        <ele>71.61</ele>
        <time>2025-01-27T10:12:50.210Z</time>
      </trkpt>
      <trkpt lat="58.98876892402768" lon="16.256597936153412">
        <ele>71.46</ele>
        <time>2025-01-27T10:12:54.338Z</time>
      </trkpt>
      <trkpt lat="58.98886724375188" lon="16.256974702700973">
        <ele>71.34</ele>
        <time>2025-01-27T10:12:58.495Z</time>
      </trkpt>
      <trkpt lat="58.988965563476086" lon="16.257351469248533">
        <ele>71.16</ele>
        <time>2025-01-27T10:13:02.681Z</time>
      </trkpt>
      <trkpt lat="58.98906296119094" lon="16.257724966853857">
        <ele>70.99</ele>
        <time>2025-01-27T10:13:06.896Z</time>
      </trkpt>
      <trkpt lat="58.98914493620396" lon="16.257847175002098">
        <ele>70.81</ele>
        <time>2025-01-27T10:13:11.125Z</time>
      </trkpt>
      <trkpt lat="58.989144852384925" lon="16.257847007364035">
        <ele>70.43</ele>
        <time>2025-01-27T10:13:15.354Z</time>
      </trkpt>
      <trkpt lat="58.989200592041016" lon="16.25804901123047">
        <ele>70.21</ele>
        <time>2025-01-27T10:13:19.598Z</time>
      </trkpt>
      <trkpt lat="58.9891791343689" lon="16.258327960968018">
        <ele>69.99</ele>
        <time>2025-01-27T10:13:23.862Z</time>
      </trkpt>
      <trkpt lat="58.98926496505737" lon="16.2587571144104">
        <ele>69.77</ele>
        <time>2025-01-27T10:13:28.158Z</time>
      </trkpt>
      <trkpt lat="58.98928642272949" lon="16.25903606414795">
        <ele>69.57</ele>
        <time>2025-01-27T10:13:32.473Z</time>
      </trkpt>
      <trkpt lat="58.989243507385254" lon="16.259465217590332">
        <ele>69.39</ele>
        <time>2025-01-27T10:13:36.818Z</time>
      </trkpt>
      <trkpt lat="58.98916815407574" lon="16.25977727584541">
        <ele>69.23</ele>
        <time>2025-01-27T10:13:41.187Z</time>
      </trkpt>
      <trkpt lat="58.98909330368042" lon="16.260087490081787">
        <ele>69.03</ele>
        <time>2025-01-27T10:13:45.580Z</time>
      </trkpt>
      <trkpt lat="58.98913630284369" lon="16.260442631319165">
        <ele>68.84</ele>
        <time>2025-01-27T10:13:49.998Z</time>
      </trkpt>
      <trkpt lat="58.9891791343689" lon="16.26079559326172">
        <ele>68.7</ele>
        <time>2025-01-27T10:13:54.441Z</time>
      </trkpt>
      <trkpt lat="58.989222049713135" lon="16.26126766204834">
        <ele>68.53</ele>
        <time>2025-01-27T10:13:58.917Z</time>
      </trkpt>
      <trkpt lat="58.98915767669678" lon="16.26152515411377">
        <ele>68.42</ele>
        <time>2025-01-27T10:14:03.413Z</time>
      </trkpt>
      <trkpt lat="58.9892222173512" lon="16.261858753859997">
        <ele>68.31</ele>
        <time>2025-01-27T10:14:07.933Z</time>
      </trkpt>
      <trkpt lat="58.98928642272949" lon="16.262190341949463">
        <ele>68.23</ele>
        <time>2025-01-27T10:14:12.478Z</time>
      </trkpt>
      <trkpt lat="58.989243507385254" lon="16.262447834014893">
        <ele>68.19</ele>
        <time>2025-01-27T10:14:17.041Z</time>
      </trkpt>
      <trkpt lat="58.98913621902466" lon="16.262598037719727">
        <ele>68.19</ele>
        <time>2025-01-27T10:14:21.622Z</time>
      </trkpt>
      <trkpt lat="58.98911476135254" lon="16.26276969909668">
        <ele>68.2</ele>
        <time>2025-01-27T10:14:26.215Z</time>
      </trkpt>
      <trkpt lat="58.98911476135254" lon="16.263177394866943">
        <ele>68.23</ele>
        <time>2025-01-27T10:14:30.836Z</time>
      </trkpt>
      <trkpt lat="58.9891791343689" lon="16.263349056243896">
        <ele>68.29</ele>
        <time>2025-01-27T10:14:35.472Z</time>
      </trkpt>
      <trkpt lat="58.98926496505737" lon="16.263606548309326">
        <ele>68.36</ele>
        <time>2025-01-27T10:14:40.129Z</time>
      </trkpt>
      <trkpt lat="58.98930788040161" lon="16.263864040374756">
        <ele>68.42</ele>
        <time>2025-01-27T10:14:44.805Z</time>
      </trkpt>
      <trkpt lat="58.98935079574585" lon="16.26422882080078">
        <ele>68.52</ele>
        <time>2025-01-27T10:14:49.507Z</time>
      </trkpt>
      <trkpt lat="58.98931844159961" lon="16.26454096287489">
        <ele>68.56</ele>
        <time>2025-01-27T10:14:54.231Z</time>
      </trkpt>
      <trkpt lat="58.98928642272949" lon="16.264851093292236">
        <ele>68.56</ele>
        <time>2025-01-27T10:14:58.976Z</time>
      </trkpt>
      <trkpt lat="58.989200592041016" lon="16.2652587890625">
        <ele>68.59</ele>
        <time>2025-01-27T10:15:03.752Z</time>
      </trkpt>
      <trkpt lat="58.989179050549865" lon="16.26560320146382">
        <ele>68.64</ele>
        <time>2025-01-27T10:15:08.552Z</time>
      </trkpt>
      <trkpt lat="58.98915767669678" lon="16.265945434570312">
        <ele>68.67</ele>
        <time>2025-01-27T10:15:13.375Z</time>
      </trkpt>
      <trkpt lat="58.98921148851514" lon="16.266343658789992">
        <ele>68.69</ele>
        <time>2025-01-27T10:15:18.227Z</time>
      </trkpt>
      <trkpt lat="58.98926496505737" lon="16.26673936843872">
        <ele>68.74</ele>
        <time>2025-01-27T10:15:23.107Z</time>
      </trkpt>
      <trkpt lat="58.98926496505737" lon="16.267082691192627">
        <ele>68.75</ele>
        <time>2025-01-27T10:15:28.011Z</time>
      </trkpt>
      <trkpt lat="58.9891791343689" lon="16.267426013946533">
        <ele>68.83</ele>
        <time>2025-01-27T10:15:32.941Z</time>
      </trkpt>
      <trkpt lat="58.9890718460083" lon="16.26774787902832">
        <ele>68.98</ele>
        <time>2025-01-27T10:15:37.897Z</time>
      </trkpt>
      <trkpt lat="58.988943099975586" lon="16.26824140548706">
        <ele>69.17</ele>
        <time>2025-01-27T10:15:42.892Z</time>
      </trkpt>
      <trkpt lat="58.988921558484435" lon="16.26856427639723">
        <ele>69.36</ele>
        <time>2025-01-27T10:15:47.909Z</time>
      </trkpt>
      <trkpt lat="58.98890018463135" lon="16.268885135650635">
        <ele>69.51</ele>
        <time>2025-01-27T10:15:52.948Z</time>
      </trkpt>
      <trkpt lat="58.98890018463135" lon="16.26946633681655">
        <ele>69.62</ele>
        <time>2025-01-27T10:15:58.028Z</time>
      </trkpt>
      <trkpt lat="58.98890018463135" lon="16.27004384994507">
        <ele>69.63</ele>
        <time>2025-01-27T10:16:03.147Z</time>
      </trkpt>
      <trkpt lat="58.9887853525579" lon="16.270402427762747">
        <ele>69.78</ele>
        <time>2025-01-27T10:16:08.295Z</time>
      </trkpt>
      <trkpt lat="58.98867060430348" lon="16.270761089399457">
        <ele>69.94</ele>
        <time>2025-01-27T10:16:13.473Z</time>
      </trkpt>
      <trkpt lat="58.98855686187744" lon="16.271116733551025">
        <ele>70.12</ele>
        <time>2025-01-27T10:16:18.679Z</time>
      </trkpt>
      <trkpt lat="58.98842811584473" lon="16.271610260009766">
        <ele>70.34</ele>
        <time>2025-01-27T10:16:23.924Z</time>
      </trkpt>
      <trkpt lat="58.988352762535214" lon="16.272116107866168">
        <ele>70.59</ele>
        <time>2025-01-27T10:16:29.205Z</time>
      </trkpt>
      <trkpt lat="58.98827791213989" lon="16.272618770599365">
        <ele>70.77</ele>
        <time>2025-01-27T10:16:34.522Z</time>
      </trkpt>
      <trkpt lat="58.98818462155759" lon="16.27301330678165">
        <ele>70.9</ele>
        <time>2025-01-27T10:16:39.869Z</time>
      </trkpt>
      <trkpt lat="58.988091414794326" lon="16.273407842963934">
        <ele>70.95</ele>
        <time>2025-01-27T10:16:45.246Z</time>
      </trkpt>
      <trkpt lat="58.987999046221375" lon="16.273798942565918">
        <ele>71.0</ele>
        <time>2025-01-27T10:16:50.653Z</time>
      </trkpt>
      <trkpt lat="58.98780542425811" lon="16.274024667218328">
        <ele>71.04</ele>
        <time>2025-01-27T10:16:56.090Z</time>
      </trkpt>
      <trkpt lat="58.9876127243042" lon="16.27424955368042">
        <ele>71.08</ele>
        <time>2025-01-27T10:17:01.557Z</time>
      </trkpt>
      <trkpt lat="58.98737668991089" lon="16.274421215057373">
        <ele>71.24</ele>
        <time>2025-01-27T10:17:07.058Z</time>
      </trkpt>
      <trkpt lat="58.98719396442175" lon="16.274388944730163">
        <ele>71.43</ele>
        <time>2025-01-27T10:17:12.583Z</time>
      </trkpt>
      <trkpt lat="58.98701190948486" lon="16.274356842041016">
        <ele>71.61</ele>
        <time>2025-01-27T10:17:18.133Z</time>
      </trkpt>
      <trkpt lat="58.986786184832454" lon="16.274432027712464">
        <ele>71.75</ele>
        <time>2025-01-27T10:17:23.713Z</time>
      </trkpt>
      <trkpt lat="58.98656129837036" lon="16.27450704574585">
        <ele>71.9</ele>
        <time>2025-01-27T10:17:29.324Z</time>
      </trkpt>
      <trkpt lat="58.98634672164917" lon="16.274399757385254">
        <ele>72.1</ele>
        <time>2025-01-27T10:17:34.964Z</time>
      </trkpt>
      <trkpt lat="58.98618537001312" lon="16.27412013709545">
        <ele>72.18</ele>
        <time>2025-01-27T10:17:40.633Z</time>
      </trkpt>
      <trkpt lat="58.98602485656738" lon="16.273841857910156">
        <ele>72.2</ele>
        <time>2025-01-27T10:17:46.331Z</time>
      </trkpt>
      <trkpt lat="58.985939025878906" lon="16.2737774848938">
        <ele>72.22</ele>
        <time>2025-01-27T10:17:52.041Z</time>
      </trkpt>
      <trkpt lat="58.98577784188092" lon="16.273766672238708">
        <ele>72.24</ele>
        <time>2025-01-27T10:17:57.773Z</time>
      </trkpt>
      <trkpt lat="58.98561716079712" lon="16.27375602722168">
        <ele>72.2</ele>
        <time>2025-01-27T10:18:03.526Z</time>
      </trkpt>
      <trkpt lat="58.98564943112433" lon="16.27412198111415">
        <ele>72.19</ele>
        <time>2025-01-27T10:18:09.305Z</time>
      </trkpt>
      <trkpt lat="58.98568153381348" lon="16.27448558807373">
        <ele>72.11</ele>
        <time>2025-01-27T10:18:15.109Z</time>
      </trkpt>
      <trkpt lat="58.98568153381348" lon="16.274807453155518">
        <ele>71.94</ele>
        <time>2025-01-27T10:18:20.936Z</time>
      </trkpt>
      <trkpt lat="58.985573910176754" lon="16.275232499465346">
        <ele>71.76</ele>
        <time>2025-01-27T10:18:26.795Z</time>
      </trkpt>
      <trkpt lat="58.98546628654003" lon="16.275657545775175">
        <ele>71.47</ele>
        <time>2025-01-27T10:18:32.687Z</time>
      </trkpt>
      <trkpt lat="58.98535866290331" lon="16.276082592085004">
        <ele>71.16</ele>
        <time>2025-01-27T10:18:38.612Z</time>
      </trkpt>
      <trkpt lat="58.985252380371094" lon="16.27650260925293">
        <ele>70.82</ele>
        <time>2025-01-27T10:18:44.569Z</time>
      </trkpt>
      <trkpt lat="58.98516654968262" lon="16.277081966400146">
        <ele>70.51</ele>
        <time>2025-01-27T10:18:50.568Z</time>
      </trkpt>
      <trkpt lat="58.98516654968262" lon="16.27727508544922">
        <ele>70.15</ele>
        <time>2025-01-27T10:18:56.580Z</time>
      </trkpt>
      <trkpt lat="58.985216757282615" lon="16.277849078178406">
        <ele>69.72</ele>
        <time>2025-01-27T10:19:02.632Z</time>
      </trkpt>
      <trkpt lat="58.98526696488261" lon="16.278423154726624">
        <ele>69.12</ele>
        <time>2025-01-27T10:19:08.724Z</time>
      </trkpt>
      <trkpt lat="58.98531675338745" lon="16.27899169921875">
        <ele>68.51</ele>
        <time>2025-01-27T10:19:14.856Z</time>
      </trkpt>
      <trkpt lat="58.98526285775006" lon="16.279540630057454">
        <ele>68.15</ele>
        <time>2025-01-27T10:19:21.027Z</time>
      </trkpt>
      <trkpt lat="58.985209465026855" lon="16.280086040496826">
        <ele>67.81</ele>
        <time>2025-01-27T10:19:27.236Z</time>
      </trkpt>
      <trkpt lat="58.985209465026855" lon="16.280364990234375">
        <ele>67.56</ele>
        <time>2025-01-27T10:19:33.464Z</time>
      </trkpt>
      <trkpt lat="58.98535966873169" lon="16.280879974365234">
        <ele>67.28</ele>
        <time>2025-01-27T10:19:39.733Z</time>
      </trkpt>
      <trkpt lat="58.98538112640381" lon="16.281094551086426">
        <ele>67.15</ele>
        <time>2025-01-27T10:19:46.017Z</time>
      </trkpt>
      <trkpt lat="58.98535237647593" lon="16.281546587124467">
        <ele>67.16</ele>
        <time>2025-01-27T10:19:52.332Z</time>
      </trkpt>
      <trkpt lat="58.98532371036708" lon="16.28199870698154">
        <ele>67.26</ele>
        <time>2025-01-27T10:19:58.679Z</time>
      </trkpt>
      <trkpt lat="58.98529529571533" lon="16.28244638442993">
        <ele>67.48</ele>
        <time>2025-01-27T10:20:05.057Z</time>
      </trkpt>
      <trkpt lat="58.985230922698975" lon="16.28298282623291">
        <ele>67.9</ele>
        <time>2025-01-27T10:20:11.473Z</time>
      </trkpt>
      <trkpt lat="58.98522011004388" lon="16.28333796747029">
        <ele>68.3</ele>
        <time>2025-01-27T10:20:17.913Z</time>
      </trkpt>
      <trkpt lat="58.98521642200649" lon="16.283459421247244">
        <ele>68.64</ele>
        <time>2025-01-27T10:20:24.362Z</time>
      </trkpt>
      <trkpt lat="58.985209465026855" lon="16.283690929412842">
        <ele>69.02</ele>
        <time>2025-01-27T10:20:30.827Z</time>
      </trkpt>
      <trkpt lat="58.98508071899414" lon="16.283605098724365">
        <ele>69.43</ele>
        <time>2025-01-27T10:20:37.310Z</time>
      </trkpt>
      <trkpt lat="58.98482322692871" lon="16.283862590789795">
        <ele>69.85</ele>
        <time>2025-01-27T10:20:43.832Z</time>
      </trkpt>
      <trkpt lat="58.98470487445593" lon="16.284120669588447">
        <ele>70.28</ele>
        <time>2025-01-27T10:20:50.378Z</time>
      </trkpt>
      <trkpt lat="58.9845871925354" lon="16.284377574920654">
        <ele>70.72</ele>
        <time>2025-01-27T10:20:56.947Z</time>
      </trkpt>
      <trkpt lat="58.98441553115845" lon="16.284377574920654">
        <ele>71.17</ele>
        <time>2025-01-27T10:21:03.539Z</time>
      </trkpt>
      <trkpt lat="58.98430824279785" lon="16.284141540527344">
        <ele>71.63</ele>
        <time>2025-01-27T10:21:10.153Z</time>
      </trkpt>
      <trkpt lat="58.984082601964474" lon="16.284076999872923">
        <ele>72.2</ele>
        <time>2025-01-27T10:21:16.797Z</time>
      </trkpt>
      <trkpt lat="58.98385771550238" lon="16.28401279449463">
        <ele>72.83</ele>
        <time>2025-01-27T10:21:23.472Z</time>
      </trkpt>
      <trkpt lat="58.98377180099487" lon="16.283926963806152">
        <ele>73.34</ele>
        <time>2025-01-27T10:21:30.160Z</time>
      </trkpt>
      <trkpt lat="58.9835786819458" lon="16.284034252166748">
        <ele>73.88</ele>
        <time>2025-01-27T10:21:36.875Z</time>
      </trkpt>
      <trkpt lat="58.98341741412878" lon="16.28393752500415">
        <ele>74.33</ele>
        <time>2025-01-27T10:21:43.612Z</time>
      </trkpt>
      <trkpt lat="58.983256816864014" lon="16.283841133117676">
        <ele>74.67</ele>
        <time>2025-01-27T10:21:50.372Z</time>
      </trkpt>
      <trkpt lat="58.98310627788305" lon="16.283647594973445">
        <ele>74.91</ele>
        <time>2025-01-27T10:21:57.156Z</time>
      </trkpt>
      <trkpt lat="58.982956409454346" lon="16.28345489501953">
        <ele>75.09</ele>
        <time>2025-01-27T10:22:03.964Z</time>
      </trkpt>
      <trkpt lat="58.982762871310115" lon="16.28327208571136">
        <ele>75.2</ele>
        <time>2025-01-27T10:22:10.801Z</time>
      </trkpt>
      <trkpt lat="58.9825701713562" lon="16.283090114593506">
        <ele>75.24</ele>
        <time>2025-01-27T10:22:17.666Z</time>
      </trkpt>
      <trkpt lat="58.98241963237524" lon="16.282950304448605">
        <ele>75.24</ele>
        <time>2025-01-27T10:22:24.554Z</time>
      </trkpt>
      <trkpt lat="58.98226976394653" lon="16.282811164855957">
        <ele>75.19</ele>
        <time>2025-01-27T10:22:31.464Z</time>
      </trkpt>
      <trkpt lat="58.981969356536865" lon="16.282660961151123">
        <ele>75.03</ele>
        <time>2025-01-27T10:22:38.415Z</time>
      </trkpt>
      <trkpt lat="58.981754779815674" lon="16.282424926757812">
        <ele>74.83</ele>
        <time>2025-01-27T10:22:45.399Z</time>
      </trkpt>
      <trkpt lat="58.981518326327205" lon="16.282546715810895">
        <ele>74.59</ele>
        <time>2025-01-27T10:22:52.416Z</time>
      </trkpt>
      <trkpt lat="58.981281872838736" lon="16.282668504863977">
        <ele>74.43</ele>
        <time>2025-01-27T10:22:59.466Z</time>
      </trkpt>
      <trkpt lat="58.98104667663574" lon="16.282789707183838">
        <ele>74.22</ele>
        <time>2025-01-27T10:23:06.548Z</time>
      </trkpt>
      <trkpt lat="58.98085322231054" lon="16.28264998085797">
        <ele>74.01</ele>
        <time>2025-01-27T10:23:13.658Z</time>
      </trkpt>
      <trkpt lat="58.9806604385376" lon="16.28251075744629">
        <ele>73.78</ele>
        <time>2025-01-27T10:23:20.795Z</time>
      </trkpt>
      <trkpt lat="58.98049925453961" lon="16.282542943954468">
        <ele>73.57</ele>
        <time>2025-01-27T10:23:27.954Z</time>
      </trkpt>
      <trkpt lat="58.98033857345581" lon="16.282575130462646">
        <ele>73.35</ele>
        <time>2025-01-27T10:23:35.135Z</time>
      </trkpt>
      <trkpt lat="58.9801128488034" lon="16.282768584787846">
        <ele>73.12</ele>
        <time>2025-01-27T10:23:42.349Z</time>
      </trkpt>
      <trkpt lat="58.97988796234131" lon="16.28296136856079">
        <ele>72.84</ele>
        <time>2025-01-27T10:23:49.595Z</time>
      </trkpt>
      <trkpt lat="58.97960901260376" lon="16.28296136856079">
        <ele>72.5</ele>
        <time>2025-01-27T10:23:56.879Z</time>
      </trkpt>
      <trkpt lat="58.97952318191528" lon="16.283411979675293">
        <ele>72.19</ele>
        <time>2025-01-27T10:24:04.196Z</time>
      </trkpt>
      <trkpt lat="58.97933676838875" lon="16.283756056800485">
        <ele>71.86</ele>
        <time>2025-01-27T10:24:11.547Z</time>
      </trkpt>
      <trkpt lat="58.97915035486221" lon="16.284100217744708">
        <ele>71.52</ele>
        <time>2025-01-27T10:24:18.933Z</time>
      </trkpt>
      <trkpt lat="58.978965282440186" lon="16.28444194793701">
        <ele>71.27</ele>
        <time>2025-01-27T10:24:26.353Z</time>
      </trkpt>
      <trkpt lat="58.97887911647558" lon="16.28484008833766">
        <ele>71.02</ele>
        <time>2025-01-27T10:24:33.803Z</time>
      </trkpt>
      <trkpt lat="58.97879362106323" lon="16.28523588180542">
        <ele>70.73</ele>
        <time>2025-01-27T10:24:41.282Z</time>
      </trkpt>
      <trkpt lat="58.978707790374756" lon="16.285429000854492">
        <ele>70.44</ele>
        <time>2025-01-27T10:24:48.779Z</time>
      </trkpt>
      <trkpt lat="58.978535793721676" lon="16.28557945601642">
        <ele>70.14</ele>
        <time>2025-01-27T10:24:56.301Z</time>
      </trkpt>
      <trkpt lat="58.97836446762085" lon="16.28572940826416">
        <ele>69.82</ele>
        <time>2025-01-27T10:25:03.848Z</time>
      </trkpt>
      <trkpt lat="58.97814938798547" lon="16.28599813207984">
        <ele>69.54</ele>
        <time>2025-01-27T10:25:11.430Z</time>
      </trkpt>
      <trkpt lat="58.97793531417847" lon="16.28626585006714">
        <ele>69.24</ele>
        <time>2025-01-27T10:25:19.046Z</time>
      </trkpt>
      <trkpt lat="58.97769886069" lon="16.286384034901857">
        <ele>68.93</ele>
        <time>2025-01-27T10:25:26.694Z</time>
      </trkpt>
      <trkpt lat="58.977463245391846" lon="16.28650188446045">
        <ele>68.69</ele>
        <time>2025-01-27T10:25:34.375Z</time>
      </trkpt>
      <trkpt lat="58.97726979106665" lon="16.286577070131898">
        <ele>68.5</ele>
        <time>2025-01-27T10:25:42.082Z</time>
      </trkpt>
      <trkpt lat="58.9770770072937" lon="16.286652088165283">
        <ele>68.34</ele>
        <time>2025-01-27T10:25:49.815Z</time>
      </trkpt>
      <trkpt lat="58.97690501064062" lon="16.286609089002013">
        <ele>68.2</ele>
        <time>2025-01-27T10:25:57.572Z</time>
      </trkpt>
      <trkpt lat="58.976733684539795" lon="16.286566257476807">
        <ele>68.12</ele>
        <time>2025-01-27T10:26:05.352Z</time>
      </trkpt>
      <trkpt lat="58.976583145558834" lon="16.286437259986997">
        <ele>68.1</ele>
        <time>2025-01-27T10:26:13.154Z</time>
      </trkpt>
      <trkpt lat="58.97643327713013" lon="16.286308765411377">
        <ele>68.11</ele>
        <time>2025-01-27T10:26:20.978Z</time>
      </trkpt>
      <trkpt lat="58.976218197494745" lon="16.285996874794364">
        <ele>68.18</ele>
        <time>2025-01-27T10:26:28.838Z</time>
      </trkpt>
      <trkpt lat="58.976004123687744" lon="16.285686492919922">
        <ele>68.25</ele>
        <time>2025-01-27T10:26:36.733Z</time>
      </trkpt>
      <trkpt lat="58.976068664342165" lon="16.285395892336965">
        <ele>68.16</ele>
        <time>2025-01-27T10:26:44.650Z</time>
      </trkpt>
      <trkpt lat="58.97613286972046" lon="16.285107135772705">
        <ele>68.11</ele>
        <time>2025-01-27T10:26:52.589Z</time>
      </trkpt>
      <trkpt lat="58.97616514004767" lon="16.284515038132668">
        <ele>68.07</ele>
        <time>2025-01-27T10:27:00.569Z</time>
      </trkpt>
      <trkpt lat="58.976197242736816" lon="16.283926963806152">
        <ele>68.16</ele>
        <time>2025-01-27T10:27:08.590Z</time>
      </trkpt>
      <trkpt lat="58.976125409826636" lon="16.28347492776811">
        <ele>68.31</ele>
        <time>2025-01-27T10:27:16.643Z</time>
      </trkpt>
      <trkpt lat="58.97605366073549" lon="16.28302289173007">
        <ele>68.46</ele>
        <time>2025-01-27T10:27:24.729Z</time>
      </trkpt>
      <trkpt lat="58.975982666015625" lon="16.282575130462646">
        <ele>68.69</ele>
        <time>2025-01-27T10:27:32.847Z</time>
      </trkpt>
      <trkpt lat="58.97596824914217" lon="16.282123010605574">
        <ele>68.98</ele>
        <time>2025-01-27T10:27:40.997Z</time>
      </trkpt>
      <trkpt lat="58.97595391608775" lon="16.2816708907485">
        <ele>69.36</ele>
        <time>2025-01-27T10:27:49.178Z</time>
      </trkpt>
      <trkpt lat="58.97593975067139" lon="16.28122329711914">
        <ele>69.84</ele>
        <time>2025-01-27T10:27:57.390Z</time>
      </trkpt>
      <trkpt lat="58.975875126197934" lon="16.28084653057158">
        <ele>70.37</ele>
        <time>2025-01-27T10:28:05.629Z</time>
      </trkpt>
      <trkpt lat="58.97581100463867" lon="16.28047227859497">
        <ele>70.96</ele>
        <time>2025-01-27T10:28:13.895Z</time>
      </trkpt>
      <trkpt lat="58.97559642791748" lon="16.280128955841064">
        <ele>71.46</ele>
        <time>2025-01-27T10:28:22.199Z</time>
      </trkpt>
      <trkpt lat="58.975489139556885" lon="16.279678344726562">
        <ele>71.91</ele>
        <time>2025-01-27T10:28:30.537Z</time>
      </trkpt>
      <trkpt lat="58.97536039352417" lon="16.279592514038086">
        <ele>72.33</ele>
        <time>2025-01-27T10:28:38.893Z</time>
      </trkpt>
      <trkpt lat="58.9751672744751" lon="16.2797212600708">
        <ele>72.73</ele>
        <time>2025-01-27T10:28:47.276Z</time>
      </trkpt>
      <trkpt lat="58.97496300749481" lon="16.27958153374493">
        <ele>73.19</ele>
        <time>2025-01-27T10:28:55.688Z</time>
      </trkpt>
      <trkpt lat="58.974759578704834" lon="16.279442310333252">
        <ele>73.61</ele>
        <time>2025-01-27T10:29:04.129Z</time>
      </trkpt>
      <trkpt lat="58.97453033365309" lon="16.279442310333252">
        <ele>73.97</ele>
        <time>2025-01-27T10:29:12.601Z</time>
      </trkpt>
      <trkpt lat="58.97430108860135" lon="16.279442310333252">
        <ele>74.23</ele>
        <time>2025-01-27T10:29:21.103Z</time>
      </trkpt>
      <trkpt lat="58.97407293319702" lon="16.279442310333252">
        <ele>74.43</ele>
        <time>2025-01-27T10:29:29.636Z</time>
      </trkpt>
      <trkpt lat="58.97388827987015" lon="16.27908842638135">
        <ele>74.67</ele>
        <time>2025-01-27T10:29:38.204Z</time>
      </trkpt>
      <trkpt lat="58.97370454855263" lon="16.278736470267177">
        <ele>74.91</ele>
        <time>2025-01-27T10:29:46.806Z</time>
      </trkpt>
      <trkpt lat="58.97370438091457" lon="16.278736051172018">
        <ele>75.29</ele>
        <time>2025-01-27T10:29:55.408Z</time>
      </trkpt>
      <trkpt lat="58.97370454855263" lon="16.278736302629113">
        <ele>75.43</ele>
        <time>2025-01-27T10:30:04.010Z</time>
      </trkpt>
      <trkpt lat="58.97355794906616" lon="16.27845525741577">
        <ele>75.54</ele>
        <time>2025-01-27T10:30:12.640Z</time>
      </trkpt>
      <trkpt lat="58.973357202485204" lon="16.278161304071546">
        <ele>75.64</ele>
        <time>2025-01-27T10:30:21.303Z</time>
      </trkpt>
      <trkpt lat="58.973156455904245" lon="16.27786743454635">
        <ele>75.74</ele>
        <time>2025-01-27T10:30:30.000Z</time>
      </trkpt>
      <trkpt lat="58.972957134246826" lon="16.277575492858887">
        <ele>75.84</ele>
        <time>2025-01-27T10:30:38.731Z</time>
      </trkpt>
      <trkpt lat="58.972866693511605" lon="16.27711054868996">
        <ele>75.83</ele>
        <time>2025-01-27T10:30:47.496Z</time>
      </trkpt>
      <trkpt lat="58.972776336595416" lon="16.276645604521036">
        <ele>75.71</ele>
        <time>2025-01-27T10:30:56.295Z</time>
      </trkpt>
      <trkpt lat="58.972685895860195" lon="16.27618066035211">
        <ele>75.55</ele>
        <time>2025-01-27T10:31:05.128Z</time>
      </trkpt>
      <trkpt lat="58.972595538944006" lon="16.275715800002217">
        <ele>75.36</ele>
        <time>2025-01-27T10:31:13.996Z</time>
      </trkpt>
      <trkpt lat="58.972506523132324" lon="16.27525806427002">
        <ele>75.13</ele>
        <time>2025-01-27T10:31:22.897Z</time>
      </trkpt>
      <trkpt lat="58.97231340408325" lon="16.274893283843994">
        <ele>74.85</ele>
        <time>2025-01-27T10:31:31.835Z</time>
      </trkpt>
      <trkpt lat="58.97221650928259" lon="16.274570496752858">
        <ele>74.53</ele>
        <time>2025-01-27T10:31:40.798Z</time>
      </trkpt>
      <trkpt lat="58.97212028503418" lon="16.27424955368042">
        <ele>74.14</ele>
        <time>2025-01-27T10:31:49.787Z</time>
      </trkpt>
      <trkpt lat="58.97212028503418" lon="16.27373456954956">
        <ele>73.71</ele>
        <time>2025-01-27T10:31:58.811Z</time>
      </trkpt>
      <trkpt lat="58.97207736968994" lon="16.27349853515625">
        <ele>73.27</ele>
        <time>2025-01-27T10:32:07.853Z</time>
      </trkpt>
      <trkpt lat="58.97192724980414" lon="16.273326873779297">
        <ele>72.86</ele>
        <time>2025-01-27T10:32:16.918Z</time>
      </trkpt>
      <trkpt lat="58.97192716598511" lon="16.273326873779297">
        <ele>72.44</ele>
        <time>2025-01-27T10:32:25.983Z</time>
      </trkpt>
      <trkpt lat="58.971819542348385" lon="16.272842567414045">
        <ele>71.94</ele>
        <time>2025-01-27T10:32:35.084Z</time>
      </trkpt>
      <trkpt lat="58.971712589263916" lon="16.272361278533936">
        <ele>71.38</ele>
        <time>2025-01-27T10:32:44.222Z</time>
      </trkpt>
      <trkpt lat="58.971755588427186" lon="16.271887617185712">
        <ele>70.85</ele>
        <time>2025-01-27T10:32:53.393Z</time>
      </trkpt>
      <trkpt lat="58.97179841995239" lon="16.271417140960693">
        <ele>70.41</ele>
        <time>2025-01-27T10:33:02.597Z</time>
      </trkpt>
      <trkpt lat="58.971812753006816" lon="16.270979354158044">
        <ele>70.0</ele>
        <time>2025-01-27T10:33:11.831Z</time>
      </trkpt>
      <trkpt lat="58.97182708606124" lon="16.270541567355394">
        <ele>69.61</ele>
        <time>2025-01-27T10:33:21.095Z</time>
      </trkpt>
      <trkpt lat="58.97184133529663" lon="16.270108222961426">
        <ele>69.22</ele>
        <time>2025-01-27T10:33:30.389Z</time>
      </trkpt>
      <trkpt lat="58.9718843344599" lon="16.269656103104353">
        <ele>68.93</ele>
        <time>2025-01-27T10:33:39.715Z</time>
      </trkpt>
      <trkpt lat="58.97192716598511" lon="16.269207000732422">
        <ele>68.66</ele>
        <time>2025-01-27T10:33:49.073Z</time>
      </trkpt>
      <trkpt lat="58.971970081329346" lon="16.268649101257324">
        <ele>68.46</ele>
        <time>2025-01-27T10:33:58.470Z</time>
      </trkpt>
      <trkpt lat="58.97190545685589" lon="16.268261605873704">
        <ele>68.24</ele>
        <time>2025-01-27T10:34:07.895Z</time>
      </trkpt>
      <trkpt lat="58.97184133529663" lon="16.267876625061035">
        <ele>68.07</ele>
        <time>2025-01-27T10:34:17.348Z</time>
      </trkpt>
      <trkpt lat="58.97181979380548" lon="16.267564399167895">
        <ele>67.89</ele>
        <time>2025-01-27T10:34:26.822Z</time>
      </trkpt>
      <trkpt lat="58.97179841995239" lon="16.26725435256958">
        <ele>67.68</ele>
        <time>2025-01-27T10:34:36.318Z</time>
      </trkpt>
      <trkpt lat="58.9718306902796" lon="16.26692066900432">
        <ele>67.41</ele>
        <time>2025-01-27T10:34:45.837Z</time>
      </trkpt>
      <trkpt lat="58.97186279296875" lon="16.266589164733887">
        <ele>67.03</ele>
        <time>2025-01-27T10:34:55.380Z</time>
      </trkpt>
      <trkpt lat="58.971734046936035" lon="16.266138553619385">
        <ele>66.67</ele>
        <time>2025-01-27T10:35:04.958Z</time>
      </trkpt>
      <trkpt lat="58.971798587590456" lon="16.265751058235765">
        <ele>66.31</ele>
        <time>2025-01-27T10:35:14.564Z</time>
      </trkpt>
      <trkpt lat="58.97186279296875" lon="16.265366077423096">
        <ele>65.88</ele>
        <time>2025-01-27T10:35:24.198Z</time>
      </trkpt>
      <trkpt lat="58.97184133529663" lon="16.265108585357666">
        <ele>65.51</ele>
        <time>2025-01-27T10:35:33.850Z</time>
      </trkpt>
      <trkpt lat="58.97168006747961" lon="16.264958046376705">
        <ele>65.05</ele>
        <time>2025-01-27T10:35:43.526Z</time>
      </trkpt>
      <trkpt lat="58.971519470214844" lon="16.264808177947998">
        <ele>64.55</ele>
        <time>2025-01-27T10:35:53.226Z</time>
      </trkpt>
      <trkpt lat="58.971261978149414" lon="16.26472234725952">
        <ele>63.99</ele>
        <time>2025-01-27T10:36:02.961Z</time>
      </trkpt>
      <trkpt lat="58.97113767452538" lon="16.264744559302926">
        <ele>63.57</ele>
        <time>2025-01-27T10:36:12.713Z</time>
      </trkpt>
      <trkpt lat="58.97113767452538" lon="16.264744643121958">
        <ele>63.19</ele>
        <time>2025-01-27T10:36:22.465Z</time>
      </trkpt>
      <trkpt lat="58.97113767452538" lon="16.26474472694099">
        <ele>62.82</ele>
        <time>2025-01-27T10:36:32.217Z</time>
      </trkpt>
      <trkpt lat="58.97113767452538" lon="16.26474481076002">
        <ele>62.47</ele>
        <time>2025-01-27T10:36:41.969Z</time>
      </trkpt>
      <trkpt lat="58.97113708779216" lon="16.264744978398085">
        <ele>62.14</ele>
        <time>2025-01-27T10:36:51.721Z</time>
      </trkpt>
      <trkpt lat="58.97113683633506" lon="16.264745062217116">
        <ele>61.84</ele>
        <time>2025-01-27T10:37:01.473Z</time>
      </trkpt>
      <trkpt lat="58.9710259437561" lon="16.26476526260376">
        <ele>61.55</ele>
        <time>2025-01-27T10:37:11.240Z</time>
      </trkpt>
      <trkpt lat="58.970746994018555" lon="16.264657974243164">
        <ele>61.2</ele>
        <time>2025-01-27T10:37:21.045Z</time>
      </trkpt>
      <trkpt lat="58.97059679031372" lon="16.264636516571045">
        <ele>60.97</ele>
        <time>2025-01-27T10:37:30.870Z</time>
      </trkpt>
      <trkpt lat="58.9705753326416" lon="16.264679431915283">
        <ele>60.83</ele>
        <time>2025-01-27T10:37:40.699Z</time>
      </trkpt>
      <trkpt lat="58.97046770900488" lon="16.26510984264314">
        <ele>60.76</ele>
        <time>2025-01-27T10:37:50.561Z</time>
      </trkpt>
      <trkpt lat="58.970360085368156" lon="16.265540253371">
        <ele>60.73</ele>
        <time>2025-01-27T10:38:00.456Z</time>
      </trkpt>
      <trkpt lat="58.970252461731434" lon="16.26597066409886">
        <ele>60.77</ele>
        <time>2025-01-27T10:38:10.384Z</time>
      </trkpt>
      <trkpt lat="58.97014617919922" lon="16.266396045684814">
        <ele>60.84</ele>
        <time>2025-01-27T10:38:20.344Z</time>
      </trkpt>
      <trkpt lat="58.970038555562496" lon="16.266769040375948">
        <ele>60.89</ele>
        <time>2025-01-27T10:38:30.334Z</time>
      </trkpt>
      <trkpt lat="58.969930931925774" lon="16.26714203506708">
        <ele>61.02</ele>
        <time>2025-01-27T10:38:40.353Z</time>
      </trkpt>
      <trkpt lat="58.96982431411743" lon="16.26751184463501">
        <ele>61.14</ele>
        <time>2025-01-27T10:38:50.402Z</time>
      </trkpt>
      <trkpt lat="58.96978139877319" lon="16.267855167388916">
        <ele>61.28</ele>
        <time>2025-01-27T10:39:00.475Z</time>
      </trkpt>
      <trkpt lat="58.969738483428955" lon="16.26821994781494">
        <ele>61.45</ele>
        <time>2025-01-27T10:39:10.574Z</time>
      </trkpt>
      <trkpt lat="58.969856752082705" lon="16.268435027450323">
        <ele>61.69</ele>
        <time>2025-01-27T10:39:20.695Z</time>
      </trkpt>
      <trkpt lat="58.969974517822266" lon="16.268649101257324">
        <ele>62.06</ele>
        <time>2025-01-27T10:39:30.837Z</time>
      </trkpt>
      <trkpt lat="58.97008205763996" lon="16.26897180452943">
        <ele>62.45</ele>
        <time>2025-01-27T10:39:41.006Z</time>
      </trkpt>
      <trkpt lat="58.97018909454346" lon="16.2692928314209">
        <ele>62.9</ele>
        <time>2025-01-27T10:39:51.201Z</time>
      </trkpt>
      <trkpt lat="58.970151375979185" lon="16.26979331485927">
        <ele>63.28</ele>
        <time>2025-01-27T10:40:01.431Z</time>
      </trkpt>
      <trkpt lat="58.970113741233945" lon="16.270293798297644">
        <ele>63.73</ele>
        <time>2025-01-27T10:40:11.696Z</time>
      </trkpt>
      <trkpt lat="58.97007602266967" lon="16.270794365555048">
        <ele>64.21</ele>
        <time>2025-01-27T10:40:21.996Z</time>
      </trkpt>
      <trkpt lat="58.97003889083862" lon="16.27128839492798">
        <ele>64.73</ele>
        <time>2025-01-27T10:40:32.330Z</time>
      </trkpt>
      <trkpt lat="58.9699312672019" lon="16.271718805655837">
        <ele>65.24</ele>
        <time>2025-01-27T10:40:42.697Z</time>
      </trkpt>
      <trkpt lat="58.96982431411743" lon="16.272146701812744">
        <ele>65.77</ele>
        <time>2025-01-27T10:40:53.097Z</time>
      </trkpt>
      <trkpt lat="58.96977041848004" lon="16.272598737850785">
        <ele>66.28</ele>
        <time>2025-01-27T10:41:03.529Z</time>
      </trkpt>
      <trkpt lat="58.969717025756836" lon="16.273047924041748">
        <ele>66.69</ele>
        <time>2025-01-27T10:41:13.993Z</time>
      </trkpt>
      <trkpt lat="58.96965960972011" lon="16.27361479215324">
        <ele>66.92</ele>
        <time>2025-01-27T10:41:24.497Z</time>
      </trkpt>
      <trkpt lat="58.969602193683386" lon="16.27418166026473">
        <ele>67.07</ele>
        <time>2025-01-27T10:41:35.041Z</time>
      </trkpt>
      <trkpt lat="58.96954536437988" lon="16.27474308013916">
        <ele>67.2</ele>
        <time>2025-01-27T10:41:45.624Z</time>
      </trkpt>
      <trkpt lat="58.969418462365866" lon="16.275021694600582">
        <ele>67.27</ele>
        <time>2025-01-27T10:41:56.233Z</time>
      </trkpt>
      <trkpt lat="58.969418462365866" lon="16.275021778419614">
        <ele>67.36</ele>
        <time>2025-01-27T10:42:06.842Z</time>
      </trkpt>
      <trkpt lat="58.969418462365866" lon="16.275021862238646">
        <ele>67.41</ele>
        <time>2025-01-27T10:42:17.451Z</time>
      </trkpt>
      <trkpt lat="58.969418462365866" lon="16.275021946057677">
        <ele>67.41</ele>
        <time>2025-01-27T10:42:28.060Z</time>
      </trkpt>
      <trkpt lat="58.96941804327071" lon="16.27502303570509">
        <ele>67.37</ele>
        <time>2025-01-27T10:42:38.669Z</time>
      </trkpt>
      <trkpt lat="58.96941812708974" lon="16.27502303570509">
        <ele>67.29</ele>
        <time>2025-01-27T10:42:49.278Z</time>
      </trkpt>
      <trkpt lat="58.96933078765869" lon="16.27521514892578">
        <ele>67.2</ele>
        <time>2025-01-27T10:42:59.905Z</time>
      </trkpt>
      <trkpt lat="58.969309413805604" lon="16.27549409866333">
        <ele>67.01</ele>
        <time>2025-01-27T10:43:10.551Z</time>
      </trkpt>
      <trkpt lat="58.96928787231445" lon="16.275901794433594">
        <ele>66.79</ele>
        <time>2025-01-27T10:43:21.225Z</time>
      </trkpt>
      <trkpt lat="58.969395412132144" lon="16.276127602905035">
        <ele>66.62</ele>
        <time>2025-01-27T10:43:31.921Z</time>
      </trkpt>
      <trkpt lat="58.969502449035645" lon="16.276352405548096">
        <ele>66.44</ele>
        <time>2025-01-27T10:43:42.638Z</time>
      </trkpt>
      <trkpt lat="58.969545448198915" lon="16.276609897613525">
        <ele>66.25</ele>
        <time>2025-01-27T10:43:53.373Z</time>
      </trkpt>
      <trkpt lat="58.969566822052" lon="16.27671718597412">
        <ele>66.07</ele>
        <time>2025-01-27T10:44:04.116Z</time>
      </trkpt>
      <trkpt lat="58.96953446790576" lon="16.277298387140036">
        <ele>65.85</ele>
        <time>2025-01-27T10:44:14.900Z</time>
      </trkpt>
      <trkpt lat="58.969502449035645" lon="16.277875900268555">
        <ele>65.55</ele>
        <time>2025-01-27T10:44:25.724Z</time>
      </trkpt>
      <trkpt lat="58.969566822052" lon="16.27828359603882">
        <ele>65.27</ele>
        <time>2025-01-27T10:44:36.577Z</time>
      </trkpt>
      <trkpt lat="58.96960973739624" lon="16.278562545776367">
        <ele>65.11</ele>
        <time>2025-01-27T10:44:47.450Z</time>
      </trkpt>
      <trkpt lat="58.96958827972412" lon="16.278927326202393">
        <ele>65.01</ele>
        <time>2025-01-27T10:44:58.349Z</time>
      </trkpt>
      <trkpt lat="58.969480991363525" lon="16.279335021972656">
        <ele>64.94</ele>
        <time>2025-01-27T10:45:09.279Z</time>
      </trkpt>
      <trkpt lat="58.9693302847445" lon="16.279808348044753">
        <ele>64.97</ele>
        <time>2025-01-27T10:45:20.248Z</time>
      </trkpt>
      <trkpt lat="58.96918058395386" lon="16.2802791595459">
        <ele>65.02</ele>
        <time>2025-01-27T10:45:31.255Z</time>
      </trkpt>
      <trkpt lat="58.968957625329494" lon="16.280674198642373">
        <ele>65.14</ele>
        <time>2025-01-27T10:45:42.302Z</time>
      </trkpt>
      <trkpt lat="58.96873609162867" lon="16.281066304072738">
        <ele>65.26</ele>
        <time>2025-01-27T10:45:53.389Z</time>
      </trkpt>
      <trkpt lat="58.96873609162867" lon="16.2810664717108">
        <ele>65.28</ele>
        <time>2025-01-27T10:46:04.476Z</time>
      </trkpt>
      <trkpt lat="58.96873609162867" lon="16.281066639348865">
        <ele>65.3</ele>
        <time>2025-01-27T10:46:15.563Z</time>
      </trkpt>
      <trkpt lat="58.9687361754477" lon="16.281066639348865">
        <ele>65.32</ele>
        <time>2025-01-27T10:46:26.650Z</time>
      </trkpt>
      <trkpt lat="58.96873558871448" lon="16.28106781281531">
        <ele>65.34</ele>
        <time>2025-01-27T10:46:37.737Z</time>
      </trkpt>
      <trkpt lat="58.968735840171576" lon="16.28106747753918">
        <ele>65.35</ele>
        <time>2025-01-27T10:46:48.825Z</time>
      </trkpt>
      <trkpt lat="58.968708515167236" lon="16.281116008758545">
        <ele>65.35</ele>
        <time>2025-01-27T10:46:59.917Z</time>
      </trkpt>
      <trkpt lat="58.968536434695125" lon="16.281331004574895">
        <ele>65.35</ele>
        <time>2025-01-27T10:47:11.037Z</time>
      </trkpt>
      <trkpt lat="58.96836519241333" lon="16.281545162200928">
        <ele>65.36</ele>
        <time>2025-01-27T10:47:22.184Z</time>
      </trkpt>
      <trkpt lat="58.968257904052734" lon="16.281652450561523">
        <ele>65.34</ele>
        <time>2025-01-27T10:47:33.347Z</time>
      </trkpt>
      <trkpt lat="58.96808624267578" lon="16.281673908233643">
        <ele>65.28</ele>
        <time>2025-01-27T10:47:44.533Z</time>
      </trkpt>
      <trkpt lat="58.96782875061035" lon="16.28145933151245">
        <ele>65.13</ele>
        <time>2025-01-27T10:47:55.757Z</time>
      </trkpt>
      <trkpt lat="58.96767812781036" lon="16.281201168894768">
        <ele>64.92</ele>
        <time>2025-01-27T10:48:07.008Z</time>
      </trkpt>
      <trkpt lat="58.967528343200684" lon="16.280944347381592">
        <ele>64.67</ele>
        <time>2025-01-27T10:48:18.285Z</time>
      </trkpt>
      <trkpt lat="58.967291889712214" lon="16.28111626021564">
        <ele>64.68</ele>
        <time>2025-01-27T10:48:29.596Z</time>
      </trkpt>
      <trkpt lat="58.967055436223745" lon="16.28128825686872">
        <ele>64.7</ele>
        <time>2025-01-27T10:48:40.941Z</time>
      </trkpt>
      <trkpt lat="58.96682024002075" lon="16.28145933151245">
        <ele>64.67</ele>
        <time>2025-01-27T10:48:52.319Z</time>
      </trkpt>
      <trkpt lat="58.966712951660156" lon="16.281137466430664">
        <ele>64.45</ele>
        <time>2025-01-27T10:49:03.724Z</time>
      </trkpt>
      <trkpt lat="58.96641254425049" lon="16.28103017807007">
        <ele>64.3</ele>
        <time>2025-01-27T10:49:15.170Z</time>
      </trkpt>
      <trkpt lat="58.96621900610626" lon="16.281191362068057">
        <ele>64.32</ele>
        <time>2025-01-27T10:49:26.644Z</time>
      </trkpt>
      <trkpt lat="58.966026306152344" lon="16.281352043151855">
        <ele>64.33</ele>
        <time>2025-01-27T10:49:38.146Z</time>
      </trkpt>
      <trkpt lat="58.96587568335235" lon="16.28168547526002">
        <ele>64.49</ele>
        <time>2025-01-27T10:49:49.679Z</time>
      </trkpt>
      <trkpt lat="58.965725898742676" lon="16.28201723098755">
        <ele>64.5</ele>
        <time>2025-01-27T10:50:01.242Z</time>
      </trkpt>
      <trkpt lat="58.965593464672565" lon="16.282129045575857">
        <ele>64.41</ele>
        <time>2025-01-27T10:50:12.824Z</time>
      </trkpt>
      <trkpt lat="58.965593380853534" lon="16.28212912939489">
        <ele>64.26</ele>
        <time>2025-01-27T10:50:24.406Z</time>
      </trkpt>
      <trkpt lat="58.96559321321547" lon="16.282129297032952">
        <ele>64.08</ele>
        <time>2025-01-27T10:50:35.988Z</time>
      </trkpt>
      <trkpt lat="58.96559321321547" lon="16.282129380851984">
        <ele>63.86</ele>
        <time>2025-01-27T10:50:47.570Z</time>
      </trkpt>
      <trkpt lat="58.965591955929995" lon="16.282130554318428">
        <ele>63.59</ele>
        <time>2025-01-27T10:50:59.152Z</time>
      </trkpt>
      <trkpt lat="58.9655917044729" lon="16.282130805775523">
        <ele>63.28</ele>
        <time>2025-01-27T10:51:10.735Z</time>
      </trkpt>
      <trkpt lat="58.96544694900513" lon="16.28225326538086">
        <ele>62.89</ele>
        <time>2025-01-27T10:51:22.339Z</time>
      </trkpt>
      <trkpt lat="58.96523195318878" lon="16.282392907887697">
        <ele>62.44</ele>
        <time>2025-01-27T10:51:33.973Z</time>
      </trkpt>
      <trkpt lat="58.965017795562744" lon="16.282532215118408">
        <ele>61.92</ele>
        <time>2025-01-27T10:51:45.637Z</time>
      </trkpt>
      <trkpt lat="58.96480263210833" lon="16.28293010406196">
        <ele>61.32</ele>
        <time>2025-01-27T10:51:57.341Z</time>
      </trkpt>
      <trkpt lat="58.96458864212036" lon="16.283326148986816">
        <ele>60.69</ele>
        <time>2025-01-27T10:52:09.085Z</time>
      </trkpt>
      <trkpt lat="58.96445520222187" lon="16.28379092551768">
        <ele>60.21</ele>
        <time>2025-01-27T10:52:20.865Z</time>
      </trkpt>
      <trkpt lat="58.96432176232338" lon="16.284255785867572">
        <ele>59.71</ele>
        <time>2025-01-27T10:52:32.682Z</time>
      </trkpt>
      <trkpt lat="58.96418832242489" lon="16.284720562398434">
        <ele>59.16</ele>
        <time>2025-01-27T10:52:44.536Z</time>
      </trkpt>
      <trkpt lat="58.96405496634543" lon="16.285185422748327">
        <ele>58.62</ele>
        <time>2025-01-27T10:52:56.426Z</time>
      </trkpt>
      <trkpt lat="58.96392345428467" lon="16.285643577575684">
        <ele>58.12</ele>
        <time>2025-01-27T10:53:08.353Z</time>
      </trkpt>
      <trkpt lat="58.963820189237595" lon="16.28588430583477">
        <ele>57.52</ele>
        <time>2025-01-27T10:53:20.301Z</time>
      </trkpt>
      <trkpt lat="58.96379470825195" lon="16.28594398498535">
        <ele>56.98</ele>
        <time>2025-01-27T10:53:32.255Z</time>
      </trkpt>
      <trkpt lat="58.96368708461523" lon="16.286180606111884">
        <ele>56.38</ele>
        <time>2025-01-27T10:53:44.230Z</time>
      </trkpt>
      <trkpt lat="58.96358013153076" lon="16.286416053771973">
        <ele>55.78</ele>
        <time>2025-01-27T10:53:56.227Z</time>
      </trkpt>
      <trkpt lat="58.96351550705731" lon="16.28681067377329">
        <ele>55.33</ele>
        <time>2025-01-27T10:54:08.253Z</time>
      </trkpt>
      <trkpt lat="58.96345096640289" lon="16.287205293774605">
        <ele>54.92</ele>
        <time>2025-01-27T10:54:20.307Z</time>
      </trkpt>
      <trkpt lat="58.96338701248169" lon="16.287596225738525">
        <ele>54.55</ele>
        <time>2025-01-27T10:54:32.389Z</time>
      </trkpt>
      <trkpt lat="58.96326212212443" lon="16.288052452728152">
        <ele>54.17</ele>
        <time>2025-01-27T10:54:44.507Z</time>
      </trkpt>
      <trkpt lat="58.96313731558621" lon="16.28850867971778">
        <ele>53.87</ele>
        <time>2025-01-27T10:54:56.661Z</time>
      </trkpt>
      <trkpt lat="58.963012509047985" lon="16.288964906707406">
        <ele>53.57</ele>
        <time>2025-01-27T10:55:08.850Z</time>
      </trkpt>
      <trkpt lat="58.96288770250976" lon="16.289421133697033">
        <ele>53.27</ele>
        <time>2025-01-27T10:55:21.075Z</time>
      </trkpt>
      <trkpt lat="58.962764739990234" lon="16.289870738983154">
        <ele>53.08</ele>
        <time>2025-01-27T10:55:33.335Z</time>
      </trkpt>
      <trkpt lat="58.96271084435284" lon="16.290430398657918">
        <ele>53.12</ele>
        <time>2025-01-27T10:55:45.634Z</time>
      </trkpt>
      <trkpt lat="58.96265745162964" lon="16.29098653793335">
        <ele>53.15</ele>
        <time>2025-01-27T10:55:57.972Z</time>
      </trkpt>
      <trkpt lat="58.96254622377455" lon="16.291517447680235">
        <ele>53.17</ele>
        <time>2025-01-27T10:56:10.350Z</time>
      </trkpt>
      <trkpt lat="58.962434995919466" lon="16.29204835742712">
        <ele>53.4</ele>
        <time>2025-01-27T10:56:22.768Z</time>
      </trkpt>
      <trkpt lat="58.96232385188341" lon="16.292579267174006">
        <ele>53.78</ele>
        <time>2025-01-27T10:56:35.225Z</time>
      </trkpt>
      <trkpt lat="58.962212624028325" lon="16.29311017692089">
        <ele>54.26</ele>
        <time>2025-01-27T10:56:47.722Z</time>
      </trkpt>
      <trkpt lat="58.96210139617324" lon="16.293641086667776">
        <ele>54.78</ele>
        <time>2025-01-27T10:57:00.258Z</time>
      </trkpt>
      <trkpt lat="58.961992263793945" lon="16.294162273406982">
        <ele>55.29</ele>
        <time>2025-01-27T10:57:12.833Z</time>
      </trkpt>
      <trkpt lat="58.962013721466064" lon="16.294707600027323">
        <ele>56.0</ele>
        <time>2025-01-27T10:57:25.446Z</time>
      </trkpt>
      <trkpt lat="58.962035262957215" lon="16.295253010466695">
        <ele>56.82</ele>
        <time>2025-01-27T10:57:38.097Z</time>
      </trkpt>
      <trkpt lat="58.9620566368103" lon="16.295793056488037">
        <ele>57.73</ele>
        <time>2025-01-27T10:57:50.785Z</time>
      </trkpt>
      <trkpt lat="58.962099719792604" lon="16.296126656234264">
        <ele>58.57</ele>
        <time>2025-01-27T10:58:03.497Z</time>
      </trkpt>
      <trkpt lat="58.96214255131781" lon="16.29645824432373">
        <ele>59.36</ele>
        <time>2025-01-27T10:58:16.232Z</time>
      </trkpt>
      <trkpt lat="58.962350422516465" lon="16.296845320612192">
        <ele>60.18</ele>
        <time>2025-01-27T10:58:29.006Z</time>
      </trkpt>
      <trkpt lat="58.96255829371512" lon="16.297232480719686">
        <ele>60.99</ele>
        <time>2025-01-27T10:58:41.818Z</time>
      </trkpt>
      <trkpt lat="58.962764739990234" lon="16.297616958618164">
        <ele>61.81</ele>
        <time>2025-01-27T10:58:54.669Z</time>
      </trkpt>
      <trkpt lat="58.96282911300659" lon="16.29774570465088">
        <ele>62.57</ele>
        <time>2025-01-27T10:59:07.532Z</time>
      </trkpt>
      <trkpt lat="58.96292592398822" lon="16.298154573887587">
        <ele>63.31</ele>
        <time>2025-01-27T10:59:20.426Z</time>
      </trkpt>
      <trkpt lat="58.963022232055664" lon="16.298561096191406">
        <ele>64.02</ele>
        <time>2025-01-27T10:59:33.351Z</time>
      </trkpt>
      <trkpt lat="58.963022232055664" lon="16.298904418945312">
        <ele>64.67</ele>
        <time>2025-01-27T10:59:46.300Z</time>
      </trkpt>
      <trkpt lat="58.96289356984198" lon="16.2992262840271">
        <ele>65.24</ele>
        <time>2025-01-27T10:59:59.277Z</time>
      </trkpt>
      <trkpt lat="58.96289348602295" lon="16.299290657043457">
        <ele>65.81</ele>
        <time>2025-01-27T11:00:12.258Z</time>
      </trkpt>
      <trkpt lat="58.963000774383545" lon="16.29974126815796">
        <ele>66.44</ele>
        <time>2025-01-27T11:00:25.274Z</time>
      </trkpt>
      <trkpt lat="58.963000774383545" lon="16.300063133239746">
        <ele>66.94</ele>
        <time>2025-01-27T11:00:38.312Z</time>
      </trkpt>
      <trkpt lat="58.96280002780259" lon="16.300321128219366">
        <ele>67.3</ele>
        <time>2025-01-27T11:00:51.382Z</time>
      </trkpt>
      <trkpt lat="58.96259936504066" lon="16.300579123198986">
        <ele>67.56</ele>
        <time>2025-01-27T11:01:04.484Z</time>
      </trkpt>
      <trkpt lat="58.96239995956421" lon="16.300835609436035">
        <ele>67.74</ele>
        <time>2025-01-27T11:01:17.618Z</time>
      </trkpt>
      <trkpt lat="58.96226014941931" lon="16.301072146743536">
        <ele>67.88</ele>
        <time>2025-01-27T11:01:30.777Z</time>
      </trkpt>
      <trkpt lat="58.96212100982666" lon="16.301307678222656">
        <ele>67.89</ele>
        <time>2025-01-27T11:01:43.961Z</time>
      </trkpt>
      <trkpt lat="58.96190584637225" lon="16.30173783749342">
        <ele>67.87</ele>
        <time>2025-01-27T11:01:57.186Z</time>
      </trkpt>
      <trkpt lat="58.961690766736865" lon="16.302168080583215">
        <ele>67.8</ele>
        <time>2025-01-27T11:02:10.452Z</time>
      </trkpt>
      <trkpt lat="58.961477279663086" lon="16.302595138549805">
        <ele>67.61</ele>
        <time>2025-01-27T11:02:23.759Z</time>
      </trkpt>
      <trkpt lat="58.96132657304406" lon="16.3030684646219">
        <ele>67.38</ele>
        <time>2025-01-27T11:02:37.105Z</time>
      </trkpt>
      <trkpt lat="58.96117687225342" lon="16.303539276123047">
        <ele>67.02</ele>
        <time>2025-01-27T11:02:50.489Z</time>
      </trkpt>
      <trkpt lat="58.96099758334458" lon="16.30388335324824">
        <ele>66.6</ele>
        <time>2025-01-27T11:03:03.907Z</time>
      </trkpt>
      <trkpt lat="58.96081837825477" lon="16.304227514192462">
        <ele>66.09</ele>
        <time>2025-01-27T11:03:17.359Z</time>
      </trkpt>
      <trkpt lat="58.96064043045044" lon="16.304569244384766">
        <ele>65.59</ele>
        <time>2025-01-27T11:03:30.844Z</time>
      </trkpt>
      <trkpt lat="58.960475474596024" lon="16.30495640449226">
        <ele>64.93</ele>
        <time>2025-01-27T11:03:44.364Z</time>
      </trkpt>
      <trkpt lat="58.96031060256064" lon="16.305343648418784">
        <ele>64.13</ele>
        <time>2025-01-27T11:03:57.918Z</time>
      </trkpt>
      <trkpt lat="58.96014698781073" lon="16.3057279586792">
        <ele>63.16</ele>
        <time>2025-01-27T11:04:11.507Z</time>
      </trkpt>
      <trkpt lat="58.96010407246649" lon="16.3057279586792">
        <ele>62.45</ele>
        <time>2025-01-27T11:04:25.101Z</time>
      </trkpt>
      <trkpt lat="58.9598532859236" lon="16.30568495951593">
        <ele>61.67</ele>
        <time>2025-01-27T11:04:38.729Z</time>
      </trkpt>
      <trkpt lat="58.95960249938071" lon="16.30564196035266">
        <ele>60.86</ele>
        <time>2025-01-27T11:04:52.391Z</time>
      </trkpt>
      <trkpt lat="58.95935297012329" lon="16.305599212646484">
        <ele>60.18</ele>
        <time>2025-01-27T11:05:06.086Z</time>
      </trkpt>
      <trkpt lat="58.95911701954901" lon="16.305513381958008">
        <ele>59.59</ele>
        <time>2025-01-27T11:05:19.813Z</time>
      </trkpt>
      <trkpt lat="58.95896648056805" lon="16.305395113304257">
        <ele>59.05</ele>
        <time>2025-01-27T11:05:33.562Z</time>
      </trkpt>
      <trkpt lat="58.958816612139344" lon="16.305277347564697">
        <ele>58.55</ele>
        <time>2025-01-27T11:05:47.333Z</time>
      </trkpt>
      <trkpt lat="58.95873078145087" lon="16.305556297302246">
        <ele>58.17</ele>
        <time>2025-01-27T11:06:01.126Z</time>
      </trkpt>
      <trkpt lat="58.958730697631836" lon="16.305556297302246">
        <ele>57.79</ele>
        <time>2025-01-27T11:06:14.919Z</time>
      </trkpt>
      <trkpt lat="58.958580493927" lon="16.305835247039795">
        <ele>57.47</ele>
        <time>2025-01-27T11:06:28.740Z</time>
      </trkpt>
      <trkpt lat="58.95840841345489" lon="16.306071700528264">
        <ele>57.18</ele>
        <time>2025-01-27T11:06:42.589Z</time>
      </trkpt>
      <trkpt lat="58.958237171173096" lon="16.306307315826416">
        <ele>56.96</ele>
        <time>2025-01-27T11:06:56.466Z</time>
      </trkpt>
      <trkpt lat="58.95808696746826" lon="16.30645751953125">
        <ele>56.77</ele>
        <time>2025-01-27T11:07:10.366Z</time>
      </trkpt>
      <trkpt lat="58.95792578347027" lon="16.30654343403876">
        <ele>56.64</ele>
        <time>2025-01-27T11:07:24.288Z</time>
      </trkpt>
      <trkpt lat="58.957765186205506" lon="16.306629180908203">
        <ele>56.58</ele>
        <time>2025-01-27T11:07:38.232Z</time>
      </trkpt>
      <trkpt lat="58.95759344100952" lon="16.306607723236084">
        <ele>56.55</ele>
        <time>2025-01-27T11:07:52.199Z</time>
      </trkpt>
      <trkpt lat="58.95737886428833" lon="16.306371688842773">
        <ele>56.56</ele>
        <time>2025-01-27T11:08:06.199Z</time>
      </trkpt>
      <trkpt lat="58.95715305581689" lon="16.3060490693897">
        <ele>56.5</ele>
        <time>2025-01-27T11:08:20.237Z</time>
      </trkpt>
      <trkpt lat="58.95692833699286" lon="16.3057279586792">
        <ele>56.48</ele>
        <time>2025-01-27T11:08:34.312Z</time>
      </trkpt>
      <trkpt lat="58.956723902374506" lon="16.305383797734976">
        <ele>56.47</ele>
        <time>2025-01-27T11:08:48.424Z</time>
      </trkpt>
      <trkpt lat="58.956520557403564" lon="16.305041313171387">
        <ele>56.48</ele>
        <time>2025-01-27T11:09:02.572Z</time>
      </trkpt>
      <trkpt lat="58.95639147609472" lon="16.304772421717644">
        <ele>56.47</ele>
        <time>2025-01-27T11:09:16.745Z</time>
      </trkpt>
      <trkpt lat="58.956263065338135" lon="16.304504871368408">
        <ele>56.42</ele>
        <time>2025-01-27T11:09:30.943Z</time>
      </trkpt>
      <trkpt lat="58.95614471286535" lon="16.30416054278612">
        <ele>56.38</ele>
        <time>2025-01-27T11:09:45.170Z</time>
      </trkpt>
      <trkpt lat="58.956027030944824" lon="16.303818225860596">
        <ele>56.36</ele>
        <time>2025-01-27T11:09:59.425Z</time>
      </trkpt>
      <trkpt lat="58.95591974258423" lon="16.303281784057617">
        <ele>56.3</ele>
        <time>2025-01-27T11:10:13.720Z</time>
      </trkpt>
      <trkpt lat="58.955855118110776" lon="16.302818935364485">
        <ele>56.25</ele>
        <time>2025-01-27T11:10:28.048Z</time>
      </trkpt>
      <trkpt lat="58.955790996551514" lon="16.302359104156494">
        <ele>56.2</ele>
        <time>2025-01-27T11:10:42.409Z</time>
      </trkpt>
      <trkpt lat="58.95565110258758" lon="16.301864068955183">
        <ele>56.07</ele>
        <time>2025-01-27T11:10:56.809Z</time>
      </trkpt>
      <trkpt lat="58.955512046813965" lon="16.301372051239014">
        <ele>55.83</ele>
        <time>2025-01-27T11:11:11.247Z</time>
      </trkpt>
      <trkpt lat="58.95544742234051" lon="16.300963014364243">
        <ele>55.53</ele>
        <time>2025-01-27T11:11:25.715Z</time>
      </trkpt>
      <trkpt lat="58.95538330078125" lon="16.300556659698486">
        <ele>55.09</ele>
        <time>2025-01-27T11:11:40.212Z</time>
      </trkpt>
      <trkpt lat="58.95528640598059" lon="16.30023387260735">
        <ele>54.57</ele>
        <time>2025-01-27T11:11:54.735Z</time>
      </trkpt>
      <trkpt lat="58.95519018173218" lon="16.299912929534912">
        <ele>53.91</ele>
        <time>2025-01-27T11:12:09.284Z</time>
      </trkpt>
      <trkpt lat="58.954997062683105" lon="16.299548149108887">
        <ele>53.29</ele>
        <time>2025-01-27T11:12:23.869Z</time>
      </trkpt>
      <trkpt lat="58.954814253374934" lon="16.299236258491874">
        <ele>52.64</ele>
        <time>2025-01-27T11:12:38.486Z</time>
      </trkpt>
      <trkpt lat="58.95463228225708" lon="16.29892587661743">
        <ele>51.85</ele>
        <time>2025-01-27T11:12:53.136Z</time>
      </trkpt>
      <trkpt lat="58.95439624786377" lon="16.298668384552002">
        <ele>50.95</ele>
        <time>2025-01-27T11:13:07.822Z</time>
      </trkpt>
      <trkpt lat="58.954331958666444" lon="16.298668384552002">
        <ele>50.03</ele>
        <time>2025-01-27T11:13:22.517Z</time>
      </trkpt>
      <trkpt lat="58.954267585650086" lon="16.298604011535645">
        <ele>49.06</ele>
        <time>2025-01-27T11:13:37.221Z</time>
      </trkpt>
      <trkpt lat="58.95413883961737" lon="16.29845380783081">
        <ele>47.98</ele>
        <time>2025-01-27T11:13:51.945Z</time>
      </trkpt>
      <trkpt lat="58.95390230230987" lon="16.298221545293927">
        <ele>46.78</ele>
        <time>2025-01-27T11:14:06.705Z</time>
      </trkpt>
      <trkpt lat="58.9536658488214" lon="16.297989366576076">
        <ele>45.58</ele>
        <time>2025-01-27T11:14:21.500Z</time>
      </trkpt>
      <trkpt lat="58.9534293115139" lon="16.297757187858224">
        <ele>44.39</ele>
        <time>2025-01-27T11:14:36.331Z</time>
      </trkpt>
      <trkpt lat="58.95319285802543" lon="16.297525009140372">
        <ele>43.17</ele>
        <time>2025-01-27T11:14:51.197Z</time>
      </trkpt>
      <trkpt lat="58.95295858383179" lon="16.297295093536377">
        <ele>41.9</ele>
        <time>2025-01-27T11:15:06.098Z</time>
      </trkpt>
      <trkpt lat="58.95295866765082" lon="16.297295093536377">
        <ele>40.69</ele>
        <time>2025-01-27T11:15:20.999Z</time>
      </trkpt>
      <trkpt lat="58.95291575230658" lon="16.29725217819214">
        <ele>39.47</ele>
        <time>2025-01-27T11:15:35.907Z</time>
      </trkpt>
      <trkpt lat="58.95273294299841" lon="16.29708018153906">
        <ele>38.19</ele>
        <time>2025-01-27T11:15:50.842Z</time>
      </trkpt>
      <trkpt lat="58.952550971880555" lon="16.296908855438232">
        <ele>36.9</ele>
        <time>2025-01-27T11:16:05.804Z</time>
      </trkpt>
      <trkpt lat="58.9523793105036" lon="16.2967586517334">
        <ele>35.59</ele>
        <time>2025-01-27T11:16:20.791Z</time>
      </trkpt>
      <trkpt lat="58.95218568854034" lon="16.296511301770806">
        <ele>34.33</ele>
        <time>2025-01-27T11:16:35.809Z</time>
      </trkpt>
      <trkpt lat="58.951992988586426" lon="16.296265125274658">
        <ele>33.14</ele>
        <time>2025-01-27T11:16:50.858Z</time>
      </trkpt>
      <trkpt lat="58.95184286870062" lon="16.29596471786499">
        <ele>32.02</ele>
        <time>2025-01-27T11:17:05.936Z</time>
      </trkpt>
      <trkpt lat="58.95173859782517" lon="16.29571502096951">
        <ele>30.99</ele>
        <time>2025-01-27T11:17:21.036Z</time>
      </trkpt>
      <trkpt lat="58.95173851400614" lon="16.295714853331447">
        <ele>30.06</ele>
        <time>2025-01-27T11:17:36.136Z</time>
      </trkpt>
      <trkpt lat="58.951738430187106" lon="16.29571451805532">
        <ele>29.19</ele>
        <time>2025-01-27T11:17:51.236Z</time>
      </trkpt>
      <trkpt lat="58.951738430187106" lon="16.295714434236288">
        <ele>28.38</ele>
        <time>2025-01-27T11:18:06.336Z</time>
      </trkpt>
      <trkpt lat="58.95173759199679" lon="16.295712254941463">
        <ele>27.65</ele>
        <time>2025-01-27T11:18:21.436Z</time>
      </trkpt>
      <trkpt lat="58.95173750817776" lon="16.29571200348437">
        <ele>27.0</ele>
        <time>2025-01-27T11:18:36.536Z</time>
      </trkpt>
      <trkpt lat="58.95174404606223" lon="16.295701693743467">
        <ele>26.43</ele>
        <time>2025-01-27T11:18:51.638Z</time>
      </trkpt>
      <trkpt lat="58.95174404606223" lon="16.295701526105404">
        <ele>25.94</ele>
        <time>2025-01-27T11:19:06.740Z</time>
      </trkpt>
      <trkpt lat="58.95174404606223" lon="16.295701442286372">
        <ele>25.53</ele>
        <time>2025-01-27T11:19:21.842Z</time>
      </trkpt>
      <trkpt lat="58.95174404606223" lon="16.29570135846734">
        <ele>25.21</ele>
        <time>2025-01-27T11:19:36.944Z</time>
      </trkpt>
      <trkpt lat="58.951743794605136" lon="16.295700604096055">
        <ele>24.98</ele>
        <time>2025-01-27T11:19:52.046Z</time>
      </trkpt>
      <trkpt lat="58.9517439622432" lon="16.295700939372182">
        <ele>24.84</ele>
        <time>2025-01-27T11:20:07.148Z</time>
      </trkpt>
      <trkpt lat="58.951711943373084" lon="16.295379996299744">
        <ele>24.75</ele>
        <time>2025-01-27T11:20:22.272Z</time>
      </trkpt>
      <trkpt lat="58.951499965041876" lon="16.29546197131276">
        <ele>24.81</ele>
        <time>2025-01-27T11:20:37.425Z</time>
      </trkpt>
      <trkpt lat="58.951242975890636" lon="16.29557093605399">
        <ele>25.0</ele>
        <time>2025-01-27T11:20:52.613Z</time>
      </trkpt>
      <trkpt lat="58.95102311857045" lon="16.295678140595555">
        <ele>25.28</ele>
        <time>2025-01-27T11:21:07.832Z</time>
      </trkpt>
      <trkpt lat="58.95080393180251" lon="16.29578492604196">
        <ele>25.68</ele>
        <time>2025-01-27T11:21:23.081Z</time>
      </trkpt>
      <trkpt lat="58.95067694596946" lon="16.295883916318417">
        <ele>26.19</ele>
        <time>2025-01-27T11:21:38.348Z</time>
      </trkpt>
      <trkpt lat="58.95058197900653" lon="16.295978967100382">
        <ele>26.79</ele>
        <time>2025-01-27T11:21:53.629Z</time>
      </trkpt>
      <trkpt lat="58.95050293765962" lon="16.296052979305387">
        <ele>27.54</ele>
        <time>2025-01-27T11:22:08.922Z</time>
      </trkpt>
      <trkpt lat="58.950361954048276" lon="16.296249954029918">
        <ele>28.39</ele>
        <time>2025-01-27T11:22:24.238Z</time>
      </trkpt>
      <trkpt lat="58.95026296377182" lon="16.29642496816814">
        <ele>29.38</ele>
        <time>2025-01-27T11:22:39.572Z</time>
      </trkpt>
      <trkpt lat="58.95015894435346" lon="16.296613980084658">
        <ele>30.5</ele>
        <time>2025-01-27T11:22:54.925Z</time>
      </trkpt>
      <trkpt lat="58.95003866404295" lon="16.296841967850924">
        <ele>31.75</ele>
        <time>2025-01-27T11:23:10.301Z</time>
      </trkpt>
      <trkpt lat="58.94991897046566" lon="16.29706894978881">
        <ele>33.12</ele>
        <time>2025-01-27T11:23:25.699Z</time>
      </trkpt>
      <trkpt lat="58.94976859912276" lon="16.2973646633327">
        <ele>34.56</ele>
        <time>2025-01-27T11:23:41.126Z</time>
      </trkpt>
      <trkpt lat="58.94961898215115" lon="16.297658951953053">
        <ele>36.14</ele>
        <time>2025-01-27T11:23:56.581Z</time>
      </trkpt>
      <trkpt lat="58.949543964117765" lon="16.297536995261908">
        <ele>37.85</ele>
        <time>2025-01-27T11:24:12.050Z</time>
      </trkpt>
      <trkpt lat="58.949323017150164" lon="16.297272965312004">
        <ele>39.78</ele>
        <time>2025-01-27T11:24:27.553Z</time>
      </trkpt>
      <trkpt lat="58.94910299219191" lon="16.29700994119048">
        <ele>41.87</ele>
        <time>2025-01-27T11:24:43.091Z</time>
      </trkpt>
      <trkpt lat="58.949067955836654" lon="16.29694095812738">
        <ele>43.73</ele>
        <time>2025-01-27T11:24:58.635Z</time>
      </trkpt>
      <trkpt lat="58.948837453499436" lon="16.296638790518045">
        <ele>45.97</ele>
        <time>2025-01-27T11:25:14.217Z</time>
      </trkpt>
      <trkpt lat="58.9486079569906" lon="16.29633796401322">
        <ele>48.1</ele>
        <time>2025-01-27T11:25:29.836Z</time>
      </trkpt>
      <trkpt lat="58.948440151289105" lon="16.296214247122407">
        <ele>49.98</ele>
        <time>2025-01-27T11:25:45.479Z</time>
      </trkpt>
      <trkpt lat="58.94827293232083" lon="16.296090949326754">
        <ele>51.73</ele>
        <time>2025-01-27T11:26:01.146Z</time>
      </trkpt>
      <trkpt lat="58.94810772500932" lon="16.296054907143116">
        <ele>53.29</ele>
        <time>2025-01-27T11:26:16.835Z</time>
      </trkpt>
      <trkpt lat="58.94794293679297" lon="16.29601894877851">
        <ele>54.67</ele>
        <time>2025-01-27T11:26:32.546Z</time>
      </trkpt>
      <trkpt lat="58.94775920547545" lon="16.296012913808227">
        <ele>55.84</ele>
        <time>2025-01-27T11:26:48.282Z</time>
      </trkpt>
      <trkpt lat="58.94757597707212" lon="16.296006962656975">
        <ele>56.79</ele>
        <time>2025-01-27T11:27:04.042Z</time>
      </trkpt>
      <trkpt lat="58.947385121136904" lon="16.296067563816905">
        <ele>57.52</ele>
        <time>2025-01-27T11:27:19.828Z</time>
      </trkpt>
      <trkpt lat="58.94719493575394" lon="16.296127997338772">
        <ele>57.98</ele>
        <time>2025-01-27T11:27:35.640Z</time>
      </trkpt>
      <trkpt lat="58.94690793938935" lon="16.296312985941768">
        <ele>58.16</ele>
        <time>2025-01-27T11:27:51.492Z</time>
      </trkpt>
      <trkpt lat="58.946725968271494" lon="16.296397978439927">
        <ele>58.28</ele>
        <time>2025-01-27T11:28:07.369Z</time>
      </trkpt>
      <trkpt lat="58.94657417200506" lon="16.29652169533074">
        <ele>58.33</ele>
        <time>2025-01-27T11:28:23.268Z</time>
      </trkpt>
      <trkpt lat="58.94642296247184" lon="16.296644993126392">
        <ele>58.27</ele>
        <time>2025-01-27T11:28:39.189Z</time>
      </trkpt>
      <trkpt lat="58.94628415815532" lon="16.296842889860272">
        <ele>58.13</ele>
        <time>2025-01-27T11:28:55.133Z</time>
      </trkpt>
      <trkpt lat="58.94614594057202" lon="16.297039948403835">
        <ele>57.92</ele>
        <time>2025-01-27T11:29:11.100Z</time>
      </trkpt>
      <trkpt lat="58.94600361585617" lon="16.297256452962756">
        <ele>57.6</ele>
        <time>2025-01-27T11:29:27.091Z</time>
      </trkpt>
      <trkpt lat="58.94586196169257" lon="16.297471951693296">
        <ele>57.21</ele>
        <time>2025-01-27T11:29:43.106Z</time>
      </trkpt>
      <trkpt lat="58.94570019096136" lon="16.29761771298945">
        <ele>56.62</ele>
        <time>2025-01-27T11:29:59.145Z</time>
      </trkpt>
      <trkpt lat="58.94553892314434" lon="16.297762971371412">
        <ele>55.95</ele>
        <time>2025-01-27T11:30:15.208Z</time>
      </trkpt>
      <trkpt lat="58.945326609537005" lon="16.297873109579086">
        <ele>55.13</ele>
        <time>2025-01-27T11:30:31.300Z</time>
      </trkpt>
      <trkpt lat="58.945114966481924" lon="16.297982996329665">
        <ele>54.27</ele>
        <time>2025-01-27T11:30:47.422Z</time>
      </trkpt>
      <trkpt lat="58.944968953728676" lon="16.29810495302081">
        <ele>53.53</ele>
        <time>2025-01-27T11:31:03.565Z</time>
      </trkpt>
      <trkpt lat="58.94483492709696" lon="16.298309974372387">
        <ele>52.79</ele>
        <time>2025-01-27T11:31:19.731Z</time>
      </trkpt>
      <trkpt lat="58.944661589339375" lon="16.298528909683228">
        <ele>52.12</ele>
        <time>2025-01-27T11:31:35.925Z</time>
      </trkpt>
      <trkpt lat="58.94448892213404" lon="16.29874692298472">
        <ele>51.48</ele>
        <time>2025-01-27T11:31:52.146Z</time>
      </trkpt>
      <trkpt lat="58.94425246864557" lon="16.29902302287519">
        <ele>50.96</ele>
        <time>2025-01-27T11:32:08.404Z</time>
      </trkpt>
      <trkpt lat="58.94401693716645" lon="16.299297949299216">
        <ele>50.66</ele>
        <time>2025-01-27T11:32:24.699Z</time>
      </trkpt>
      <trkpt lat="58.943845611065626" lon="16.299567092210054">
        <ele>50.39</ele>
        <time>2025-01-27T11:32:41.023Z</time>
      </trkpt>
      <trkpt lat="58.943674955517054" lon="16.299834977835417">
        <ele>49.96</ele>
        <time>2025-01-27T11:32:57.377Z</time>
      </trkpt>
      <trkpt lat="58.943502958863974" lon="16.299832966178656">
        <ele>49.52</ele>
        <time>2025-01-27T11:33:13.754Z</time>
      </trkpt>
      <trkpt lat="58.943355940282345" lon="16.299792984500527">
        <ele>49.08</ele>
        <time>2025-01-27T11:33:30.150Z</time>
      </trkpt>
      <trkpt lat="58.94329693168402" lon="16.299661975353956">
        <ele>48.67</ele>
        <time>2025-01-27T11:33:46.558Z</time>
      </trkpt>
      <trkpt lat="58.94317396916449" lon="16.299531972035766">
        <ele>48.22</ele>
        <time>2025-01-27T11:34:02.985Z</time>
      </trkpt>
      <trkpt lat="58.94300691783428" lon="16.29921899177134">
        <ele>47.77</ele>
        <time>2025-01-27T11:34:19.443Z</time>
      </trkpt>
      <trkpt lat="58.94300892949104" lon="16.299121929332614">
        <ele>47.34</ele>
        <time>2025-01-27T11:34:35.908Z</time>
      </trkpt>
      <trkpt lat="58.942944975569844" lon="16.299030985683203">
        <ele>46.89</ele>
        <time>2025-01-27T11:34:52.384Z</time>
      </trkpt>
      <trkpt lat="58.94281296059489" lon="16.29902495071292">
        <ele>46.42</ele>
        <time>2025-01-27T11:35:08.877Z</time>
      </trkpt>
      <trkpt lat="58.94267499446869" lon="16.298859994858503">
        <ele>45.95</ele>
        <time>2025-01-27T11:35:25.392Z</time>
      </trkpt>
      <trkpt lat="58.94244591705501" lon="16.298802997916937">
        <ele>45.46</ele>
        <time>2025-01-27T11:35:41.938Z</time>
      </trkpt>
      <trkpt lat="58.942325972020626" lon="16.298905927687883">
        <ele>44.92</ele>
        <time>2025-01-27T11:35:58.501Z</time>
      </trkpt>
      <trkpt lat="58.942195968702435" lon="16.29885395988822">
        <ele>44.36</ele>
        <time>2025-01-27T11:36:15.082Z</time>
      </trkpt>
      <trkpt lat="58.942022966220975" lon="16.29908798262477">
        <ele>43.75</ele>
        <time>2025-01-27T11:36:31.691Z</time>
      </trkpt>
      <trkpt lat="58.94194694235921" lon="16.299536917358637">
        <ele>42.98</ele>
        <time>2025-01-27T11:36:48.333Z</time>
      </trkpt>
      <trkpt lat="58.941914923489094" lon="16.29958293400705">
        <ele>42.34</ele>
        <time>2025-01-27T11:37:04.980Z</time>
      </trkpt>
      <trkpt lat="58.94164494238794" lon="16.299548987299204">
        <ele>41.65</ele>
        <time>2025-01-27T11:37:21.663Z</time>
      </trkpt>
      <trkpt lat="58.94160898402333" lon="16.29943499341607">
        <ele>41.05</ele>
        <time>2025-01-27T11:37:38.356Z</time>
      </trkpt>
      <trkpt lat="58.94142994657159" lon="16.299280934035778">
        <ele>40.33</ele>
        <time>2025-01-27T11:37:55.075Z</time>
      </trkpt>
      <trkpt lat="58.94140999764204" lon="16.2991329934448">
        <ele>39.68</ele>
        <time>2025-01-27T11:38:11.804Z</time>
      </trkpt>
      <trkpt lat="58.94130991771817" lon="16.298950938507915">
        <ele>38.9</ele>
        <time>2025-01-27T11:38:28.552Z</time>
      </trkpt>
      <trkpt lat="58.94119391217828" lon="16.298857145011425">
        <ele>38.17</ele>
        <time>2025-01-27T11:38:45.317Z</time>
      </trkpt>
      <trkpt lat="58.94118997268379" lon="16.29885395988822">
        <ele>37.54</ele>
        <time>2025-01-27T11:39:02.082Z</time>
      </trkpt>
      <trkpt lat="58.941054940223694" lon="16.29893995821476">
        <ele>36.94</ele>
        <time>2025-01-27T11:39:18.866Z</time>
      </trkpt>
      <trkpt lat="58.940957961604" lon="16.29917892627418">
        <ele>36.34</ele>
        <time>2025-01-27T11:39:35.671Z</time>
      </trkpt>
      <trkpt lat="58.94081966020167" lon="16.29939241334796">
        <ele>35.74</ele>
        <time>2025-01-27T11:39:52.500Z</time>
      </trkpt>
      <trkpt lat="58.94068194553256" lon="16.29960497841239">
        <ele>35.17</ele>
        <time>2025-01-27T11:40:09.352Z</time>
      </trkpt>
      <trkpt lat="58.94051573239267" lon="16.29962501116097">
        <ele>34.64</ele>
        <time>2025-01-27T11:40:26.227Z</time>
      </trkpt>
      <trkpt lat="58.940349938347936" lon="16.299644960090518">
        <ele>34.14</ele>
        <time>2025-01-27T11:40:43.124Z</time>
      </trkpt>
      <trkpt lat="58.940214989706874" lon="16.299502970650792">
        <ele>33.63</ele>
        <time>2025-01-27T11:41:00.041Z</time>
      </trkpt>
      <trkpt lat="58.94013796001673" lon="16.299642948433757">
        <ele>33.19</ele>
        <time>2025-01-27T11:41:16.972Z</time>
      </trkpt>
      <trkpt lat="58.94017098471522" lon="16.299074990674853">
        <ele>32.76</ele>
        <time>2025-01-27T11:41:33.943Z</time>
      </trkpt>
      <trkpt lat="58.940185736864805" lon="16.298561012372375">
        <ele>32.48</ele>
        <time>2025-01-27T11:41:50.950Z</time>
      </trkpt>
      <trkpt lat="58.94020057283342" lon="16.298047117888927">
        <ele>32.21</ele>
        <time>2025-01-27T11:42:07.992Z</time>
      </trkpt>
      <trkpt lat="58.940215324983" lon="16.29753313958645">
        <ele>31.97</ele>
        <time>2025-01-27T11:42:25.070Z</time>
      </trkpt>
      <trkpt lat="58.94022999331355" lon="16.29702595062554">
        <ele>31.77</ele>
        <time>2025-01-27T11:42:42.183Z</time>
      </trkpt>
      <trkpt lat="58.94025052897632" lon="16.29652177914977">
        <ele>31.62</ele>
        <time>2025-01-27T11:42:59.331Z</time>
      </trkpt>
      <trkpt lat="58.94027098082006" lon="16.29602096043527">
        <ele>31.52</ele>
        <time>2025-01-27T11:43:16.513Z</time>
      </trkpt>
      <trkpt lat="58.940283972769976" lon="16.29556347616017">
        <ele>31.45</ele>
        <time>2025-01-27T11:43:33.727Z</time>
      </trkpt>
      <trkpt lat="58.94029696471989" lon="16.295108925551176">
        <ele>31.45</ele>
        <time>2025-01-27T11:43:50.973Z</time>
      </trkpt>
      <trkpt lat="58.940301490947604" lon="16.294765351340175">
        <ele>31.45</ele>
        <time>2025-01-27T11:44:08.242Z</time>
      </trkpt>
      <trkpt lat="58.940305933356285" lon="16.294423956423998">
        <ele>31.54</ele>
        <time>2025-01-27T11:44:25.535Z</time>
      </trkpt>
      <trkpt lat="58.94030040130019" lon="16.29408633336425">
        <ele>31.64</ele>
        <time>2025-01-27T11:44:42.851Z</time>
      </trkpt>
      <trkpt lat="58.94029495306313" lon="16.293750973418355">
        <ele>31.82</ele>
        <time>2025-01-27T11:45:00.190Z</time>
      </trkpt>
      <trkpt lat="58.94027492031455" lon="16.293263817206025">
        <ele>32.05</ele>
        <time>2025-01-27T11:45:17.563Z</time>
      </trkpt>
      <trkpt lat="58.940254971385" lon="16.292779929935932">
        <ele>32.49</ele>
        <time>2025-01-27T11:45:34.970Z</time>
      </trkpt>
      <trkpt lat="58.94025396555662" lon="16.292293947190046">
        <ele>33.02</ele>
        <time>2025-01-27T11:45:52.410Z</time>
      </trkpt>
      <trkpt lat="58.940281039103866" lon="16.2918870896101">
        <ele>33.6</ele>
        <time>2025-01-27T11:46:09.879Z</time>
      </trkpt>
      <trkpt lat="58.940307945013046" lon="16.2914829980582">
        <ele>34.22</ele>
        <time>2025-01-27T11:46:27.376Z</time>
      </trkpt>
      <trkpt lat="58.940368965268135" lon="16.290937922894955">
        <ele>34.94</ele>
        <time>2025-01-27T11:46:44.911Z</time>
      </trkpt>
      <trkpt lat="58.94043895415962" lon="16.29047993570566">
        <ele>35.67</ele>
        <time>2025-01-27T11:47:02.479Z</time>
      </trkpt>
      <trkpt lat="58.94050299189985" lon="16.2902379501611">
        <ele>36.39</ele>
        <time>2025-01-27T11:47:20.066Z</time>
      </trkpt>
      <trkpt lat="58.94057096913457" lon="16.290034940466285">
        <ele>37.18</ele>
        <time>2025-01-27T11:47:37.670Z</time>
      </trkpt>
      <trkpt lat="58.94068093970418" lon="16.289794966578484">
        <ele>38.02</ele>
        <time>2025-01-27T11:47:55.296Z</time>
      </trkpt>
      <trkpt lat="58.94053098745644" lon="16.289642918854952">
        <ele>38.99</ele>
        <time>2025-01-27T11:48:12.945Z</time>
      </trkpt>
      <trkpt lat="58.940542973577976" lon="16.28933597356081">
        <ele>39.97</ele>
        <time>2025-01-27T11:48:30.615Z</time>
      </trkpt>
      <trkpt lat="58.94063592888415" lon="16.2891189660877">
        <ele>40.88</ele>
        <time>2025-01-27T11:48:48.304Z</time>
      </trkpt>
      <trkpt lat="58.94067792221904" lon="16.28894898109138">
        <ele>41.76</ele>
        <time>2025-01-27T11:49:06.006Z</time>
      </trkpt>
      <trkpt lat="58.940689489245415" lon="16.28840667195618">
        <ele>42.69</ele>
        <time>2025-01-27T11:49:23.746Z</time>
      </trkpt>
      <trkpt lat="58.94070097245276" lon="16.287867967039347">
        <ele>43.54</ele>
        <time>2025-01-27T11:49:41.523Z</time>
      </trkpt>
      <trkpt lat="58.94077464938164" lon="16.287525398656726">
        <ele>44.32</ele>
        <time>2025-01-27T11:49:59.326Z</time>
      </trkpt>
      <trkpt lat="58.94084799103439" lon="16.287184925749898">
        <ele>45.19</ele>
        <time>2025-01-27T11:50:17.154Z</time>
      </trkpt>
      <trkpt lat="58.940786300227046" lon="16.286853924393654">
        <ele>46.09</ele>
        <time>2025-01-27T11:50:35.007Z</time>
      </trkpt>
      <trkpt lat="58.94072494469583" lon="16.28652493469417">
        <ele>47.0</ele>
        <time>2025-01-27T11:50:52.884Z</time>
      </trkpt>
      <trkpt lat="58.94060114398599" lon="16.286313962191343">
        <ele>47.94</ele>
        <time>2025-01-27T11:51:10.783Z</time>
      </trkpt>
      <trkpt lat="58.940477930009365" lon="16.286103995516896">
        <ele>48.92</ele>
        <time>2025-01-27T11:51:28.704Z</time>
      </trkpt>
      <trkpt lat="58.94031297415495" lon="16.285641733556986">
        <ele>49.88</ele>
        <time>2025-01-27T11:51:46.663Z</time>
      </trkpt>
      <trkpt lat="58.94014894030988" lon="16.285181986168027">
        <ele>50.79</ele>
        <time>2025-01-27T11:52:04.661Z</time>
      </trkpt>
      <trkpt lat="58.94014894030988" lon="16.284873951226473">
        <ele>51.77</ele>
        <time>2025-01-27T11:52:22.680Z</time>
      </trkpt>
      <trkpt lat="58.94014894030988" lon="16.28456792794168">
        <ele>52.76</ele>
        <time>2025-01-27T11:52:40.721Z</time>
      </trkpt>
      <trkpt lat="58.94002262502909" lon="16.284065432846546">
        <ele>53.78</ele>
        <time>2025-01-27T11:52:58.800Z</time>
      </trkpt>
      <trkpt lat="58.939896980300546" lon="16.283565955236554">
        <ele>54.8</ele>
        <time>2025-01-27T11:53:16.917Z</time>
      </trkpt>
      <trkpt lat="58.93985381349921" lon="16.28316312097013">
        <ele>55.92</ele>
        <time>2025-01-27T11:53:35.063Z</time>
      </trkpt>
      <trkpt lat="58.939810981974006" lon="16.28276296891272">
        <ele>57.04</ele>
        <time>2025-01-27T11:53:53.237Z</time>
      </trkpt>
      <trkpt lat="58.93988097086549" lon="16.282409923151135">
        <ele>58.23</ele>
        <time>2025-01-27T11:54:11.437Z</time>
      </trkpt>
      <trkpt lat="58.94012245349586" lon="16.282067773863673">
        <ele>59.51</ele>
        <time>2025-01-27T11:54:29.677Z</time>
      </trkpt>
      <trkpt lat="58.94036293029785" lon="16.28172696568072">
        <ele>60.71</ele>
        <time>2025-01-27T11:54:47.957Z</time>
      </trkpt>
      <trkpt lat="58.940497962757945" lon="16.281283982098103">
        <ele>61.8</ele>
        <time>2025-01-27T11:55:06.273Z</time>
      </trkpt>
      <trkpt lat="58.940432919189334" lon="16.281055994331837">
        <ele>62.7</ele>
        <time>2025-01-27T11:55:24.607Z</time>
      </trkpt>
      <trkpt lat="58.940479941666126" lon="16.28046398051083">
        <ele>63.53</ele>
        <time>2025-01-27T11:55:42.982Z</time>
      </trkpt>
      <trkpt lat="58.940626960247755" lon="16.280042957514524">
        <ele>64.31</ele>
        <time>2025-01-27T11:56:01.392Z</time>
      </trkpt>
      <trkpt lat="58.94082594662905" lon="16.27988395281136">
        <ele>64.95</ele>
        <time>2025-01-27T11:56:19.831Z</time>
      </trkpt>
      <trkpt lat="58.94103473983705" lon="16.2798438873142">
        <ele>65.51</ele>
        <time>2025-01-27T11:56:38.298Z</time>
      </trkpt>
      <trkpt lat="58.94124294631183" lon="16.279803989455104">
        <ele>65.97</ele>
        <time>2025-01-27T11:56:56.793Z</time>
      </trkpt>
      <trkpt lat="58.94141687080264" lon="16.27950727008283">
        <ele>66.32</ele>
        <time>2025-01-27T11:57:15.319Z</time>
      </trkpt>
      <trkpt lat="58.94158995710313" lon="16.279211975634098">
        <ele>66.66</ele>
        <time>2025-01-27T11:57:33.876Z</time>
      </trkpt>
      <trkpt lat="58.941728342324495" lon="16.278858510777354">
        <ele>66.85</ele>
        <time>2025-01-27T11:57:52.463Z</time>
      </trkpt>
      <trkpt lat="58.94186597317457" lon="16.27850697375834">
        <ele>66.93</ele>
        <time>2025-01-27T11:58:11.081Z</time>
      </trkpt>
      <trkpt lat="58.94183940254152" lon="16.27820447087288">
        <ele>66.96</ele>
        <time>2025-01-27T11:58:29.720Z</time>
      </trkpt>
      <trkpt lat="58.94181299954653" lon="16.27790397964418">
        <ele>66.89</ele>
        <time>2025-01-27T11:58:48.380Z</time>
      </trkpt>
      <trkpt lat="58.941886676475406" lon="16.27757851034403">
        <ele>66.68</ele>
        <time>2025-01-27T11:59:07.065Z</time>
      </trkpt>
      <trkpt lat="58.941959934309125" lon="16.277254968881607">
        <ele>66.44</ele>
        <time>2025-01-27T11:59:25.774Z</time>
      </trkpt>
      <trkpt lat="58.94215380772948" lon="16.277055563405156">
        <ele>66.19</ele>
        <time>2025-01-27T11:59:44.512Z</time>
      </trkpt>
      <trkpt lat="58.942346926778555" lon="16.276856996119022">
        <ele>65.97</ele>
        <time>2025-01-27T12:00:03.280Z</time>
      </trkpt>
      <trkpt lat="58.94235899671912" lon="16.276321979239583">
        <ele>65.65</ele>
        <time>2025-01-27T12:00:22.085Z</time>
      </trkpt>
      <trkpt lat="58.942432673648" lon="16.27603112719953">
        <ele>65.37</ele>
        <time>2025-01-27T12:00:40.912Z</time>
      </trkpt>
      <trkpt lat="58.94250593148172" lon="16.275741951540112">
        <ele>65.06</ele>
        <time>2025-01-27T12:00:59.761Z</time>
      </trkpt>
      <trkpt lat="58.94239109940827" lon="16.275325287133455">
        <ele>64.73</ele>
        <time>2025-01-27T12:01:18.643Z</time>
      </trkpt>
      <trkpt lat="58.94227693788707" lon="16.274910969659686">
        <ele>64.44</ele>
        <time>2025-01-27T12:01:37.557Z</time>
      </trkpt>
      <trkpt lat="58.942020954564214" lon="16.274597318843007">
        <ele>64.06</ele>
        <time>2025-01-27T12:01:56.512Z</time>
      </trkpt>
      <trkpt lat="58.941765977069736" lon="16.274284925311804">
        <ele>63.74</ele>
        <time>2025-01-27T12:02:15.507Z</time>
      </trkpt>
      <trkpt lat="58.94160923548043" lon="16.273934729397297">
        <ele>63.42</ele>
        <time>2025-01-27T12:02:34.534Z</time>
      </trkpt>
      <trkpt lat="58.94145249389112" lon="16.27358453348279">
        <ele>63.12</ele>
        <time>2025-01-27T12:02:53.593Z</time>
      </trkpt>
      <trkpt lat="58.941296925768256" lon="16.273236935958266">
        <ele>62.81</ele>
        <time>2025-01-27T12:03:12.684Z</time>
      </trkpt>
      <trkpt lat="58.941144878044724" lon="16.272913813591003">
        <ele>62.52</ele>
        <time>2025-01-27T12:03:31.805Z</time>
      </trkpt>
      <trkpt lat="58.94099283032119" lon="16.27259069122374">
        <ele>62.25</ele>
        <time>2025-01-27T12:03:50.956Z</time>
      </trkpt>
      <trkpt lat="58.940841956064105" lon="16.272269999608397">
        <ele>62.02</ele>
        <time>2025-01-27T12:04:10.137Z</time>
      </trkpt>
      <trkpt lat="58.94075671210885" lon="16.271964563056827">
        <ele>61.84</ele>
        <time>2025-01-27T12:04:29.342Z</time>
      </trkpt>
      <trkpt lat="58.940671971067786" lon="16.271660970523953">
        <ele>61.66</ele>
        <time>2025-01-27T12:04:48.571Z</time>
      </trkpt>
      <trkpt lat="58.94061011262238" lon="16.27120449207723">
        <ele>61.46</ele>
        <time>2025-01-27T12:05:07.833Z</time>
      </trkpt>
      <trkpt lat="58.940548254176974" lon="16.27074801363051">
        <ele>61.29</ele>
        <time>2025-01-27T12:05:27.127Z</time>
      </trkpt>
      <trkpt lat="58.94048698246479" lon="16.27029597759247">
        <ele>61.04</ele>
        <time>2025-01-27T12:05:46.454Z</time>
      </trkpt>
      <trkpt lat="58.940433003008366" lon="16.269846288487315">
        <ele>60.84</ele>
        <time>2025-01-27T12:06:05.813Z</time>
      </trkpt>
      <trkpt lat="58.940433003008366" lon="16.26984612084925">
        <ele>60.73</ele>
        <time>2025-01-27T12:06:25.172Z</time>
      </trkpt>
      <trkpt lat="58.940433003008366" lon="16.269845701754093">
        <ele>60.65</ele>
        <time>2025-01-27T12:06:44.531Z</time>
      </trkpt>
      <trkpt lat="58.940433003008366" lon="16.26984561793506">
        <ele>60.6</ele>
        <time>2025-01-27T12:07:03.890Z</time>
      </trkpt>
      <trkpt lat="58.94043275155127" lon="16.269842935726047">
        <ele>60.58</ele>
        <time>2025-01-27T12:07:23.249Z</time>
      </trkpt>
      <trkpt lat="58.94043090753257" lon="16.269827345386147">
        <ele>60.61</ele>
        <time>2025-01-27T12:07:42.609Z</time>
      </trkpt>
      <trkpt lat="58.94043090753257" lon="16.269827261567116">
        <ele>60.67</ele>
        <time>2025-01-27T12:08:01.969Z</time>
      </trkpt>
      <trkpt lat="58.94043090753257" lon="16.269827093929052">
        <ele>60.78</ele>
        <time>2025-01-27T12:08:21.329Z</time>
      </trkpt>
      <trkpt lat="58.94043090753257" lon="16.26982692629099">
        <ele>60.93</ele>
        <time>2025-01-27T12:08:40.689Z</time>
      </trkpt>
      <trkpt lat="58.94043073989451" lon="16.26982508227229">
        <ele>61.12</ele>
        <time>2025-01-27T12:09:00.049Z</time>
      </trkpt>
      <trkpt lat="58.94043073989451" lon="16.269824914634228">
        <ele>61.36</ele>
        <time>2025-01-27T12:09:19.409Z</time>
      </trkpt>
      <trkpt lat="58.94037491641939" lon="16.26935695298016">
        <ele>61.66</ele>
        <time>2025-01-27T12:09:38.802Z</time>
      </trkpt>
      <trkpt lat="58.940349854528904" lon="16.268794611096382">
        <ele>61.95</ele>
        <time>2025-01-27T12:09:58.234Z</time>
      </trkpt>
      <trkpt lat="58.940324960276484" lon="16.26823595725">
        <ele>62.32</ele>
        <time>2025-01-27T12:10:17.705Z</time>
      </trkpt>
      <trkpt lat="58.94025874324143" lon="16.267825160175562">
        <ele>62.73</ele>
        <time>2025-01-27T12:10:37.206Z</time>
      </trkpt>
      <trkpt lat="58.94019294530153" lon="16.267416961491108">
        <ele>63.2</ele>
        <time>2025-01-27T12:10:56.736Z</time>
      </trkpt>
      <trkpt lat="58.94003603607416" lon="16.266985293477774">
        <ele>63.71</ele>
        <time>2025-01-27T12:11:16.303Z</time>
      </trkpt>
      <trkpt lat="58.93987996503711" lon="16.266555972397327">
        <ele>64.3</ele>
        <time>2025-01-27T12:11:35.906Z</time>
      </trkpt>
      <trkpt lat="58.939720038324594" lon="16.266247685998678">
        <ele>64.97</ele>
        <time>2025-01-27T12:11:55.539Z</time>
      </trkpt>
      <trkpt lat="58.9395609498024" lon="16.26594099216163">
        <ele>65.65</ele>
        <time>2025-01-27T12:12:15.202Z</time>
      </trkpt>
      <trkpt lat="58.93938769586384" lon="16.265871841460466">
        <ele>66.38</ele>
        <time>2025-01-27T12:12:34.889Z</time>
      </trkpt>
      <trkpt lat="58.93921494483948" lon="16.265802942216396">
        <ele>67.15</ele>
        <time>2025-01-27T12:12:54.599Z</time>
      </trkpt>
      <trkpt lat="58.93909893929958" lon="16.26600695773959">
        <ele>67.91</ele>
        <time>2025-01-27T12:13:14.330Z</time>
      </trkpt>
      <trkpt lat="58.93881294876337" lon="16.26600595191121">
        <ele>68.75</ele>
        <time>2025-01-27T12:13:34.100Z</time>
      </trkpt>
      <trkpt lat="58.93865017220378" lon="16.26596588641405">
        <ele>69.38</ele>
        <time>2025-01-27T12:13:53.891Z</time>
      </trkpt>
      <trkpt lat="58.93848798237741" lon="16.265925988554955">
        <ele>69.92</ele>
        <time>2025-01-27T12:14:13.704Z</time>
      </trkpt>
      <trkpt lat="58.93823493272066" lon="16.266039982438087">
        <ele>70.4</ele>
        <time>2025-01-27T12:14:33.552Z</time>
      </trkpt>
      <trkpt lat="58.93821196630597" lon="16.26630099490285">
        <ele>70.78</ele>
        <time>2025-01-27T12:14:53.418Z</time>
      </trkpt>
      <trkpt lat="58.938284972682595" lon="16.26660894602537">
        <ele>71.16</ele>
        <time>2025-01-27T12:15:13.308Z</time>
      </trkpt>
      <trkpt lat="58.9382469188422" lon="16.267108926549554">
        <ele>71.46</ele>
        <time>2025-01-27T12:15:33.233Z</time>
      </trkpt>
      <trkpt lat="58.93816997297108" lon="16.26733699813485">
        <ele>71.7</ele>
        <time>2025-01-27T12:15:53.177Z</time>
      </trkpt>
      <trkpt lat="58.93799806013703" lon="16.267656181007624">
        <ele>71.84</ele>
        <time>2025-01-27T12:16:13.152Z</time>
      </trkpt>
      <trkpt lat="58.9378269854933" lon="16.267973938956857">
        <ele>71.96</ele>
        <time>2025-01-27T12:16:33.159Z</time>
      </trkpt>
      <trkpt lat="58.937767976894975" lon="16.268332935869694">
        <ele>72.0</ele>
        <time>2025-01-27T12:16:53.192Z</time>
      </trkpt>
      <trkpt lat="58.93775699660182" lon="16.26882193610072">
        <ele>71.96</ele>
        <time>2025-01-27T12:17:13.259Z</time>
      </trkpt>
      <trkpt lat="58.93779798410833" lon="16.269145980477333">
        <ele>71.84</ele>
        <time>2025-01-27T12:17:33.349Z</time>
      </trkpt>
      <trkpt lat="58.93788171932101" lon="16.26940866932273">
        <ele>71.58</ele>
        <time>2025-01-27T12:17:53.460Z</time>
      </trkpt>
      <trkpt lat="58.937964951619506" lon="16.269669933244586">
        <ele>71.34</ele>
        <time>2025-01-27T12:18:13.593Z</time>
      </trkpt>
      <trkpt lat="58.938005939126015" lon="16.270033959299326">
        <ele>71.01</ele>
        <time>2025-01-27T12:18:33.751Z</time>
      </trkpt>
      <trkpt lat="58.93790292553604" lon="16.27042598091066">
        <ele>70.55</ele>
        <time>2025-01-27T12:18:53.940Z</time>
      </trkpt>
      <trkpt lat="58.93766798079014" lon="16.270756982266903">
        <ele>70.07</ele>
        <time>2025-01-27T12:19:14.167Z</time>
      </trkpt>
      <trkpt lat="58.93745399080217" lon="16.270790928974748">
        <ele>69.75</ele>
        <time>2025-01-27T12:19:34.423Z</time>
      </trkpt>
      <trkpt lat="58.93726598471403" lon="16.270972983911633">
        <ele>69.41</ele>
        <time>2025-01-27T12:19:54.707Z</time>
      </trkpt>
      <trkpt lat="58.93709868192673" lon="16.271092677488923">
        <ele>69.09</ele>
        <time>2025-01-27T12:20:15.015Z</time>
      </trkpt>
      <trkpt lat="58.936931965872645" lon="16.271211951971054">
        <ele>68.79</ele>
        <time>2025-01-27T12:20:35.347Z</time>
      </trkpt>
      <trkpt lat="58.936737924814224" lon="16.271598944440484">
        <ele>68.54</ele>
        <time>2025-01-27T12:20:55.716Z</time>
      </trkpt>
      <trkpt lat="58.93652091734111" lon="16.271859956905246">
        <ele>68.23</ele>
        <time>2025-01-27T12:21:16.119Z</time>
      </trkpt>
      <trkpt lat="58.9364059176296" lon="16.271814946085215">
        <ele>67.81</ele>
        <time>2025-01-27T12:21:36.538Z</time>
      </trkpt>
      <trkpt lat="58.93623593263328" lon="16.271820981055498">
        <ele>67.37</ele>
        <time>2025-01-27T12:21:56.980Z</time>
      </trkpt>
      <trkpt lat="58.93608572892845" lon="16.271912092342973">
        <ele>66.85</ele>
        <time>2025-01-27T12:22:17.443Z</time>
      </trkpt>
      <trkpt lat="58.93593594431877" lon="16.272002952173352">
        <ele>66.32</ele>
        <time>2025-01-27T12:22:37.927Z</time>
      </trkpt>
      <trkpt lat="58.93574517220259" lon="16.272085597738624">
        <ele>65.76</ele>
        <time>2025-01-27T12:22:58.437Z</time>
      </trkpt>
      <trkpt lat="58.935554986819625" lon="16.2721679918468">
        <ele>65.2</ele>
        <time>2025-01-27T12:23:18.973Z</time>
      </trkpt>
      <trkpt lat="58.935427917167544" lon="16.272121975198388">
        <ele>64.66</ele>
        <time>2025-01-27T12:23:39.526Z</time>
      </trkpt>
      <trkpt lat="58.93526396714151" lon="16.272411989048123">
        <ele>64.14</ele>
        <time>2025-01-27T12:24:00.109Z</time>
      </trkpt>
      <trkpt lat="58.93506967462599" lon="16.27246906980872">
        <ele>63.64</ele>
        <time>2025-01-27T12:24:20.718Z</time>
      </trkpt>
      <trkpt lat="58.9348759688437" lon="16.272525982931256">
        <ele>63.18</ele>
        <time>2025-01-27T12:24:41.353Z</time>
      </trkpt>
      <trkpt lat="58.93470112234354" lon="16.272383742034435">
        <ele>62.74</ele>
        <time>2025-01-27T12:25:02.014Z</time>
      </trkpt>
      <trkpt lat="58.934526946395636" lon="16.272241920232773">
        <ele>62.32</ele>
        <time>2025-01-27T12:25:22.700Z</time>
      </trkpt>
      <trkpt lat="58.93435092642903" lon="16.272201938554645">
        <ele>61.92</ele>
        <time>2025-01-27T12:25:43.410Z</time>
      </trkpt>
      <trkpt lat="58.93418571911752" lon="16.272097751498222">
        <ele>61.5</ele>
        <time>2025-01-27T12:26:04.143Z</time>
      </trkpt>
      <trkpt lat="58.93402093090117" lon="16.27199398353696">
        <ele>61.07</ele>
        <time>2025-01-27T12:26:24.899Z</time>
      </trkpt>
      <trkpt lat="58.93382999114692" lon="16.271808994933963">
        <ele>60.67</ele>
        <time>2025-01-27T12:26:45.684Z</time>
      </trkpt>
      <trkpt lat="58.933595046401024" lon="16.271680248901248">
        <ele>60.31</ele>
        <time>2025-01-27T12:27:06.501Z</time>
      </trkpt>
      <trkpt lat="58.93336093984544" lon="16.27155192196369">
        <ele>60.01</ele>
        <time>2025-01-27T12:27:27.351Z</time>
      </trkpt>
      <trkpt lat="58.93311593681574" lon="16.27124598249793">
        <ele>59.74</ele>
        <time>2025-01-27T12:27:48.240Z</time>
      </trkpt>
      <trkpt lat="58.93292256630957" lon="16.270963847637177">
        <ele>59.57</ele>
        <time>2025-01-27T12:28:09.161Z</time>
      </trkpt>
      <trkpt lat="58.93272995017469" lon="16.2706829700619">
        <ele>59.51</ele>
        <time>2025-01-27T12:28:30.114Z</time>
      </trkpt>
      <trkpt lat="58.932656943798065" lon="16.270284997299314">
        <ele>59.52</ele>
        <time>2025-01-27T12:28:51.097Z</time>
      </trkpt>
      <trkpt lat="58.93264194019139" lon="16.269974950701">
        <ele>59.55</ele>
        <time>2025-01-27T12:29:12.101Z</time>
      </trkpt>
      <trkpt lat="58.93246793188155" lon="16.269797924906015">
        <ele>59.48</ele>
        <time>2025-01-27T12:29:33.131Z</time>
      </trkpt>
      <trkpt lat="58.93225997686386" lon="16.269411938264966">
        <ele>59.47</ele>
        <time>2025-01-27T12:29:54.200Z</time>
      </trkpt>
      <trkpt lat="58.9320819452405" lon="16.269209934398532">
        <ele>59.41</ele>
        <time>2025-01-27T12:30:15.296Z</time>
      </trkpt>
      <trkpt lat="58.9319506008178" lon="16.26880282536149">
        <ele>59.26</ele>
        <time>2025-01-27T12:30:36.426Z</time>
      </trkpt>
      <trkpt lat="58.931819926947355" lon="16.268397979438305">
        <ele>59.12</ele>
        <time>2025-01-27T12:30:57.589Z</time>
      </trkpt>
      <trkpt lat="58.931583976373076" lon="16.268075946718454">
        <ele>59.03</ele>
        <time>2025-01-27T12:31:18.790Z</time>
      </trkpt>
      <trkpt lat="58.93150895833969" lon="16.267689960077405">
        <ele>58.95</ele>
        <time>2025-01-27T12:31:40.020Z</time>
      </trkpt>
      <trkpt lat="58.93155665136874" lon="16.26730221323669">
        <ele>58.96</ele>
        <time>2025-01-27T12:32:01.277Z</time>
      </trkpt>
      <trkpt lat="58.931603925302625" lon="16.266916980966926">
        <ele>59.0</ele>
        <time>2025-01-27T12:32:22.562Z</time>
      </trkpt>
      <trkpt lat="58.9316310826689" lon="16.266522696241736">
        <ele>59.08</ele>
        <time>2025-01-27T12:32:43.874Z</time>
      </trkpt>
      <trkpt lat="58.93165798857808" lon="16.2661309260875">
        <ele>59.16</ele>
        <time>2025-01-27T12:33:05.213Z</time>
      </trkpt>
      <trkpt lat="58.93153494223952" lon="16.26576698385179">
        <ele>59.31</ele>
        <time>2025-01-27T12:33:26.582Z</time>
      </trkpt>
      <trkpt lat="58.93154692836106" lon="16.265492979437113">
        <ele>59.47</ele>
        <time>2025-01-27T12:33:47.970Z</time>
      </trkpt>
      <trkpt lat="58.93148775212467" lon="16.26490507274866">
        <ele>59.82</ele>
        <time>2025-01-27T12:34:09.400Z</time>
      </trkpt>
      <trkpt lat="58.931428994983435" lon="16.264320937916636">
        <ele>60.14</ele>
        <time>2025-01-27T12:34:30.871Z</time>
      </trkpt>
      <trkpt lat="58.93129052594304" lon="16.263778880238533">
        <ele>60.44</ele>
        <time>2025-01-27T12:34:52.384Z</time>
      </trkpt>
      <trkpt lat="58.931152978911996" lon="16.263239923864603">
        <ele>60.71</ele>
        <time>2025-01-27T12:35:13.938Z</time>
      </trkpt>
      <trkpt lat="58.93104719929397" lon="16.262971786782146">
        <ele>60.95</ele>
        <time>2025-01-27T12:35:35.516Z</time>
      </trkpt>
      <trkpt lat="58.93094192259014" lon="16.262704990804195">
        <ele>61.26</ele>
        <time>2025-01-27T12:35:57.117Z</time>
      </trkpt>
      <trkpt lat="58.93077411688864" lon="16.262551182880998">
        <ele>61.65</ele>
        <time>2025-01-27T12:36:18.743Z</time>
      </trkpt>
      <trkpt lat="58.9306069817394" lon="16.262397961691022">
        <ele>62.06</ele>
        <time>2025-01-27T12:36:40.393Z</time>
      </trkpt>
      <trkpt lat="58.93040413968265" lon="16.262403996661305">
        <ele>62.45</ele>
        <time>2025-01-27T12:37:02.070Z</time>
      </trkpt>
      <trkpt lat="58.93020196817815" lon="16.262409947812557">
        <ele>62.81</ele>
        <time>2025-01-27T12:37:23.775Z</time>
      </trkpt>
      <trkpt lat="58.930006083101034" lon="16.262602815404534">
        <ele>63.18</ele>
        <time>2025-01-27T12:37:45.509Z</time>
      </trkpt>
      <trkpt lat="58.9298109523952" lon="16.262794928625226">
        <ele>63.57</ele>
        <time>2025-01-27T12:38:07.272Z</time>
      </trkpt>
      <trkpt lat="58.929791925475" lon="16.263201786205173">
        <ele>63.96</ele>
        <time>2025-01-27T12:38:29.063Z</time>
      </trkpt>
      <trkpt lat="58.929772982373834" lon="16.263605961576104">
        <ele>64.4</ele>
        <time>2025-01-27T12:38:50.882Z</time>
      </trkpt>
      <trkpt lat="58.929733922705054" lon="16.26417995430529">
        <ele>64.88</ele>
        <time>2025-01-27T12:39:12.741Z</time>
      </trkpt>
      <trkpt lat="58.92967591993511" lon="16.264612963423133">
        <ele>65.37</ele>
        <time>2025-01-27T12:39:34.631Z</time>
      </trkpt>
      <trkpt lat="58.92958698794246" lon="16.264965925365686">
        <ele>65.85</ele>
        <time>2025-01-27T12:39:56.549Z</time>
      </trkpt>
      <trkpt lat="58.92940199933946" lon="16.265453919768333">
        <ele>66.35</ele>
        <time>2025-01-27T12:40:18.508Z</time>
      </trkpt>
      <trkpt lat="58.92932094633579" lon="16.265696994960308">
        <ele>66.81</ele>
        <time>2025-01-27T12:40:40.487Z</time>
      </trkpt>
      <trkpt lat="58.92919999547303" lon="16.266117934137583">
        <ele>67.3</ele>
        <time>2025-01-27T12:41:02.500Z</time>
      </trkpt>
      <trkpt lat="58.92907594330609" lon="16.266633924096823">
        <ele>67.84</ele>
        <time>2025-01-27T12:41:24.552Z</time>
      </trkpt>
      <trkpt lat="58.929005954414606" lon="16.266811955720186">
        <ele>68.44</ele>
        <time>2025-01-27T12:41:46.619Z</time>
      </trkpt>
      <trkpt lat="58.92886497080326" lon="16.267172964289784">
        <ele>69.1</ele>
        <time>2025-01-27T12:42:08.718Z</time>
      </trkpt>
      <trkpt lat="58.92879598774016" lon="16.267330963164568">
        <ele>69.76</ele>
        <time>2025-01-27T12:42:30.831Z</time>
      </trkpt>
      <trkpt lat="58.92871988005936" lon="16.267452836036682">
        <ele>70.46</ele>
        <time>2025-01-27T12:42:52.957Z</time>
      </trkpt>
      <trkpt lat="58.928684927523136" lon="16.26750899478793">
        <ele>71.12</ele>
        <time>2025-01-27T12:43:15.089Z</time>
      </trkpt>
      <trkpt lat="58.928530951961875" lon="16.267628939822316">
        <ele>71.82</ele>
        <time>2025-01-27T12:43:37.243Z</time>
      </trkpt>
      <trkpt lat="58.92843196168542" lon="16.267837984487414">
        <ele>72.51</ele>
        <time>2025-01-27T12:43:59.417Z</time>
      </trkpt>
      <trkpt lat="58.928314950317144" lon="16.26834492199123">
        <ele>73.19</ele>
        <time>2025-01-27T12:44:21.629Z</time>
      </trkpt>
      <trkpt lat="58.928131805732846" lon="16.26872956752777">
        <ele>73.81</ele>
        <time>2025-01-27T12:44:43.878Z</time>
      </trkpt>
      <trkpt lat="58.92794874496758" lon="16.269114213064313">
        <ele>74.52</ele>
        <time>2025-01-27T12:45:06.163Z</time>
      </trkpt>
      <trkpt lat="58.92776694148779" lon="16.269495924934745">
        <ele>75.28</ele>
        <time>2025-01-27T12:45:28.484Z</time>
      </trkpt>
      <trkpt lat="58.92772092483938" lon="16.269769929349422">
        <ele>75.91</ele>
        <time>2025-01-27T12:45:50.824Z</time>
      </trkpt>
      <trkpt lat="58.92761296592653" lon="16.270074946805835">
        <ele>76.55</ele>
        <time>2025-01-27T12:46:13.190Z</time>
      </trkpt>
      <trkpt lat="58.927469719201326" lon="16.27020419575274">
        <ele>77.05</ele>
        <time>2025-01-27T12:46:35.577Z</time>
      </trkpt>
      <trkpt lat="58.927326975390315" lon="16.270332941785455">
        <ele>77.5</ele>
        <time>2025-01-27T12:46:57.985Z</time>
      </trkpt>
      <trkpt lat="58.92725992016494" lon="16.270332941785455">
        <ele>77.9</ele>
        <time>2025-01-27T12:47:20.402Z</time>
      </trkpt>
      <trkpt lat="58.927156990393996" lon="16.270179972052574">
        <ele>78.25</ele>
        <time>2025-01-27T12:47:42.836Z</time>
      </trkpt>
      <trkpt lat="58.92688298597932" lon="16.27021199092269">
        <ele>78.5</ele>
        <time>2025-01-27T12:48:05.307Z</time>
      </trkpt>
      <trkpt lat="58.926616944372654" lon="16.27025993540883">
        <ele>78.67</ele>
        <time>2025-01-27T12:48:27.814Z</time>
      </trkpt>
      <trkpt lat="58.926487946882844" lon="16.26999498344958">
        <ele>78.89</ele>
        <time>2025-01-27T12:48:50.346Z</time>
      </trkpt>
      <trkpt lat="58.92640873789787" lon="16.269612768664956">
        <ele>79.08</ele>
        <time>2025-01-27T12:49:12.907Z</time>
      </trkpt>
      <trkpt lat="58.92632944509387" lon="16.269230637699366">
        <ele>79.16</ele>
        <time>2025-01-27T12:49:35.496Z</time>
      </trkpt>
      <trkpt lat="58.926250990480185" lon="16.268851943314075">
        <ele>79.18</ele>
        <time>2025-01-27T12:49:58.113Z</time>
      </trkpt>
      <trkpt lat="58.9260929916054" lon="16.268393956124783">
        <ele>79.13</ele>
        <time>2025-01-27T12:50:20.768Z</time>
      </trkpt>
      <trkpt lat="58.925948990508914" lon="16.268180971965194">
        <ele>79.03</ele>
        <time>2025-01-27T12:50:43.447Z</time>
      </trkpt>
      <trkpt lat="58.92574958503246" lon="16.268022805452347">
        <ele>78.88</ele>
        <time>2025-01-27T12:51:06.155Z</time>
      </trkpt>
      <trkpt lat="58.92571195028722" lon="16.267992965877056">
        <ele>78.67</ele>
        <time>2025-01-27T12:51:28.869Z</time>
      </trkpt>
      <trkpt lat="58.92565998248756" lon="16.26793596893549">
        <ele>78.39</ele>
        <time>2025-01-27T12:51:51.591Z</time>
      </trkpt>
      <trkpt lat="58.92551497556269" lon="16.268074940890074">
        <ele>78.07</ele>
        <time>2025-01-27T12:52:14.334Z</time>
      </trkpt>
      <trkpt lat="58.92535798251629" lon="16.2684119772166">
        <ele>77.74</ele>
        <time>2025-01-27T12:52:37.109Z</time>
      </trkpt>
      <trkpt lat="58.925197049975395" lon="16.268800981342793">
        <ele>77.37</ele>
        <time>2025-01-27T12:52:59.918Z</time>
      </trkpt>
      <trkpt lat="58.92503695562482" lon="16.269187973812222">
        <ele>76.85</ele>
        <time>2025-01-27T12:53:22.761Z</time>
      </trkpt>
      <trkpt lat="58.92490913160145" lon="16.26941596157849">
        <ele>76.38</ele>
        <time>2025-01-27T12:53:45.628Z</time>
      </trkpt>
      <trkpt lat="58.92478197813034" lon="16.269642943516374">
        <ele>75.85</ele>
        <time>2025-01-27T12:54:08.518Z</time>
      </trkpt>
      <trkpt lat="58.924596989527345" lon="16.270032953470945">
        <ele>75.37</ele>
        <time>2025-01-27T12:54:31.444Z</time>
      </trkpt>
      <trkpt lat="58.92443463206291" lon="16.270287008956075">
        <ele>74.82</ele>
        <time>2025-01-27T12:54:54.398Z</time>
      </trkpt>
      <trkpt lat="58.92427294515073" lon="16.27053997479379">
        <ele>74.24</ele>
        <time>2025-01-27T12:55:17.380Z</time>
      </trkpt>
      <trkpt lat="58.9240379165858" lon="16.270808950066566">
        <ele>73.55</ele>
        <time>2025-01-27T12:55:40.399Z</time>
      </trkpt>
      <trkpt lat="58.92386097460985" lon="16.270996956154704">
        <ele>72.88</ele>
        <time>2025-01-27T12:56:03.445Z</time>
      </trkpt>
      <trkpt lat="58.923611948266625" lon="16.27124497666955">
        <ele>72.23</ele>
        <time>2025-01-27T12:56:26.528Z</time>
      </trkpt>
      <trkpt lat="58.92345713451505" lon="16.271390235051513">
        <ele>71.7</ele>
        <time>2025-01-27T12:56:49.634Z</time>
      </trkpt>
      <trkpt lat="58.92330299131572" lon="16.271534990519285">
        <ele>71.27</ele>
        <time>2025-01-27T12:57:12.763Z</time>
      </trkpt>
      <trkpt lat="58.923159996047616" lon="16.271689971908927">
        <ele>70.92</ele>
        <time>2025-01-27T12:57:35.914Z</time>
      </trkpt>
      <trkpt lat="58.92301892861724" lon="16.27184998244047">
        <ele>70.59</ele>
        <time>2025-01-27T12:57:59.087Z</time>
      </trkpt>
      <trkpt lat="58.922832095995545" lon="16.272078892216086">
        <ele>70.32</ele>
        <time>2025-01-27T12:58:22.289Z</time>
      </trkpt>
      <trkpt lat="58.922645933926105" lon="16.272306963801384">
        <ele>70.02</ele>
        <time>2025-01-27T12:58:45.521Z</time>
      </trkpt>
      <trkpt lat="58.922504698857665" lon="16.272463286295533">
        <ele>69.8</ele>
        <time>2025-01-27T12:59:08.774Z</time>
      </trkpt>
      <trkpt lat="58.922363966703415" lon="16.27261893823743">
        <ele>69.6</ele>
        <time>2025-01-27T12:59:32.049Z</time>
      </trkpt>
      <trkpt lat="58.92216498032212" lon="16.272874921560287">
        <ele>69.42</ele>
        <time>2025-01-27T12:59:55.356Z</time>
      </trkpt>
      <trkpt lat="58.92204897478223" lon="16.273060999810696">
        <ele>69.27</ele>
        <time>2025-01-27T13:00:18.683Z</time>
      </trkpt>
      <trkpt lat="58.92195392400026" lon="16.273195948451757">
        <ele>69.13</ele>
        <time>2025-01-27T13:00:42.026Z</time>
      </trkpt>
      <trkpt lat="58.92175896093249" lon="16.273302985355258">
        <ele>69.02</ele>
        <time>2025-01-27T13:01:05.396Z</time>
      </trkpt>
      <trkpt lat="58.92157497815788" lon="16.273378925397992">
        <ele>68.91</ele>
        <time>2025-01-27T13:01:28.791Z</time>
      </trkpt>
      <trkpt lat="58.921396946534514" lon="16.273212963715196">
        <ele>68.79</ele>
        <time>2025-01-27T13:01:52.213Z</time>
      </trkpt>
      <trkpt lat="58.9211989659816" lon="16.273211957886815">
        <ele>68.78</ele>
        <time>2025-01-27T13:02:15.661Z</time>
      </trkpt>
      <trkpt lat="58.92103794962168" lon="16.273153955116868">
        <ele>68.82</ele>
        <time>2025-01-27T13:02:39.131Z</time>
      </trkpt>
      <trkpt lat="58.920837957412004" lon="16.272997967898846">
        <ele>68.89</ele>
        <time>2025-01-27T13:03:02.630Z</time>
      </trkpt>
      <trkpt lat="58.92066998407245" lon="16.27281297929585">
        <ele>68.96</ele>
        <time>2025-01-27T13:03:26.155Z</time>
      </trkpt>
      <trkpt lat="58.92041492275894" lon="16.27260091714561">
        <ele>69.11</ele>
        <time>2025-01-27T13:03:49.717Z</time>
      </trkpt>
      <trkpt lat="58.920304952189326" lon="16.27249496988952">
        <ele>69.11</ele>
        <time>2025-01-27T13:04:13.295Z</time>
      </trkpt>
      <trkpt lat="58.920130943879485" lon="16.272244937717915">
        <ele>69.06</ele>
        <time>2025-01-27T13:04:36.902Z</time>
      </trkpt>
      <trkpt lat="58.920027846470475" lon="16.272123651579022">
        <ele>68.91</ele>
        <time>2025-01-27T13:05:00.525Z</time>
      </trkpt>
      <trkpt lat="58.92002776265144" lon="16.27212348394096">
        <ele>68.83</ele>
        <time>2025-01-27T13:05:24.148Z</time>
      </trkpt>
      <trkpt lat="58.92002759501338" lon="16.272123232483864">
        <ele>68.73</ele>
        <time>2025-01-27T13:05:47.771Z</time>
      </trkpt>
      <trkpt lat="58.920026421546936" lon="16.272121807560325">
        <ele>68.59</ele>
        <time>2025-01-27T13:06:11.395Z</time>
      </trkpt>
      <trkpt lat="58.92001879401505" lon="16.27211283892393">
        <ele>68.42</ele>
        <time>2025-01-27T13:06:35.020Z</time>
      </trkpt>
      <trkpt lat="58.92001871019602" lon="16.2721127551049">
        <ele>68.24</ele>
        <time>2025-01-27T13:06:58.645Z</time>
      </trkpt>
      <trkpt lat="58.92001862637699" lon="16.272112671285868">
        <ele>68.03</ele>
        <time>2025-01-27T13:07:22.270Z</time>
      </trkpt>
      <trkpt lat="58.92001778818667" lon="16.27211174927652">
        <ele>67.81</ele>
        <time>2025-01-27T13:07:45.895Z</time>
      </trkpt>
      <trkpt lat="58.92001795582473" lon="16.272111916914582">
        <ele>67.57</ele>
        <time>2025-01-27T13:08:09.520Z</time>
      </trkpt>
      <trkpt lat="58.91990195028484" lon="16.2720419280231">
        <ele>67.21</ele>
        <time>2025-01-27T13:08:33.161Z</time>
      </trkpt>
      <trkpt lat="58.91975895501673" lon="16.272030947729945">
        <ele>66.85</ele>
        <time>2025-01-27T13:08:56.821Z</time>
      </trkpt>
      <trkpt lat="58.91953557729721" lon="16.272119795903563">
        <ele>66.45</ele>
        <time>2025-01-27T13:09:20.512Z</time>
      </trkpt>
      <trkpt lat="58.91931228339672" lon="16.27220856025815">
        <ele>66.16</ele>
        <time>2025-01-27T13:09:44.233Z</time>
      </trkpt>
      <trkpt lat="58.91908999532461" lon="16.27229698933661">
        <ele>65.93</ele>
        <time>2025-01-27T13:10:07.985Z</time>
      </trkpt>
      <trkpt lat="58.918883968144655" lon="16.27227695658803">
        <ele>65.76</ele>
        <time>2025-01-27T13:10:31.764Z</time>
      </trkpt>
      <trkpt lat="58.918602000921965" lon="16.272091129794717">
        <ele>65.61</ele>
        <time>2025-01-27T13:10:55.583Z</time>
      </trkpt>
      <trkpt lat="58.91832095570862" lon="16.271905973553658">
        <ele>65.47</ele>
        <time>2025-01-27T13:11:19.442Z</time>
      </trkpt>
      <trkpt lat="58.91809497959912" lon="16.271767923608422">
        <ele>65.37</ele>
        <time>2025-01-27T13:11:43.332Z</time>
      </trkpt>
      <trkpt lat="58.91791393049061" lon="16.271704975515604">
        <ele>65.29</ele>
        <time>2025-01-27T13:12:07.247Z</time>
      </trkpt>
      <trkpt lat="58.91770899295807" lon="16.271615959703922">
        <ele>65.21</ele>
        <time>2025-01-27T13:12:31.190Z</time>
      </trkpt>
      <trkpt lat="58.91758795827627" lon="16.271496936678886">
        <ele>65.17</ele>
        <time>2025-01-27T13:12:55.151Z</time>
      </trkpt>
      <trkpt lat="58.917378997430205" lon="16.27111597917974">
        <ele>65.15</ele>
        <time>2025-01-27T13:13:19.151Z</time>
      </trkpt>
      <trkpt lat="58.91727321781218" lon="16.270871814340353">
        <ele>65.26</ele>
        <time>2025-01-27T13:13:43.173Z</time>
      </trkpt>
      <trkpt lat="58.917167941108346" lon="16.270628990605474">
        <ele>65.43</ele>
        <time>2025-01-27T13:14:07.216Z</time>
      </trkpt>
      <trkpt lat="58.91709099523723" lon="16.270476942881942">
        <ele>65.58</ele>
        <time>2025-01-27T13:14:31.274Z</time>
      </trkpt>
      <trkpt lat="58.916990999132395" lon="16.27038398757577">
        <ele>65.77</ele>
        <time>2025-01-27T13:14:55.347Z</time>
      </trkpt>
      <trkpt lat="58.916865941137075" lon="16.2703409884125">
        <ele>65.97</ele>
        <time>2025-01-27T13:15:19.437Z</time>
      </trkpt>
      <trkpt lat="58.91673292033374" lon="16.270267982035875">
        <ele>66.14</ele>
        <time>2025-01-27T13:15:43.545Z</time>
      </trkpt>
      <trkpt lat="58.91663099639118" lon="16.270187934860587">
        <ele>66.25</ele>
        <time>2025-01-27T13:16:07.668Z</time>
      </trkpt>
      <trkpt lat="58.916459921747446" lon="16.269841929897666">
        <ele>66.31</ele>
        <time>2025-01-27T13:16:31.824Z</time>
      </trkpt>
      <trkpt lat="58.91632094979286" lon="16.26950598321855">
        <ele>66.29</ele>
        <time>2025-01-27T13:16:56.010Z</time>
      </trkpt>
      <trkpt lat="58.91622698865831" lon="16.269455943256617">
        <ele>66.33</ele>
        <time>2025-01-27T13:17:20.209Z</time>
      </trkpt>
      <trkpt lat="58.916112994775176" lon="16.269454937428236">
        <ele>66.37</ele>
        <time>2025-01-27T13:17:44.423Z</time>
      </trkpt>
      <trkpt lat="58.915943931788206" lon="16.269541941583157">
        <ele>66.4</ele>
        <time>2025-01-27T13:18:08.661Z</time>
      </trkpt>
      <trkpt lat="58.915681997314095" lon="16.269628945738077">
        <ele>66.4</ele>
        <time>2025-01-27T13:18:32.934Z</time>
      </trkpt>
      <trkpt lat="58.91556196846068" lon="16.269745957106352">
        <ele>66.41</ele>
        <time>2025-01-27T13:18:57.225Z</time>
      </trkpt>
      <trkpt lat="58.915359964594245" lon="16.26978795044124">
        <ele>66.44</ele>
        <time>2025-01-27T13:19:21.543Z</time>
      </trkpt>
      <trkpt lat="58.915144968777895" lon="16.269771941006184">
        <ele>66.49</ele>
        <time>2025-01-27T13:19:45.890Z</time>
      </trkpt>
      <trkpt lat="58.91496199183166" lon="16.269793985411525">
        <ele>66.57</ele>
        <time>2025-01-27T13:20:10.262Z</time>
      </trkpt>
      <trkpt lat="58.914801981300116" lon="16.26982399262488">
        <ele>66.59</ele>
        <time>2025-01-27T13:20:34.655Z</time>
      </trkpt>
      <trkpt lat="58.91464767046273" lon="16.269903117790818">
        <ele>66.58</ele>
        <time>2025-01-27T13:20:59.069Z</time>
      </trkpt>
      <trkpt lat="58.91449394635856" lon="16.269981991499662">
        <ele>66.53</ele>
        <time>2025-01-27T13:21:23.505Z</time>
      </trkpt>
      <trkpt lat="58.914326978847384" lon="16.2700439337641">
        <ele>66.43</ele>
        <time>2025-01-27T13:21:47.963Z</time>
      </trkpt>
      <trkpt lat="58.91409899108112" lon="16.270027924329042">
        <ele>66.3</ele>
        <time>2025-01-27T13:22:12.452Z</time>
      </trkpt>
      <trkpt lat="58.913811994716525" lon="16.269942931830883">
        <ele>66.15</ele>
        <time>2025-01-27T13:22:36.980Z</time>
      </trkpt>
      <trkpt lat="58.91358895227313" lon="16.269862968474627">
        <ele>66.12</ele>
        <time>2025-01-27T13:23:01.538Z</time>
      </trkpt>
      <trkpt lat="58.91341393813491" lon="16.26976498402655">
        <ele>66.14</ele>
        <time>2025-01-27T13:23:26.120Z</time>
      </trkpt>
      <trkpt lat="58.9133229944855" lon="16.26967797987163">
        <ele>66.16</ele>
        <time>2025-01-27T13:23:50.716Z</time>
      </trkpt>
      <trkpt lat="58.913251999765635" lon="16.269555939361453">
        <ele>66.2</ele>
        <time>2025-01-27T13:24:15.325Z</time>
      </trkpt>
      <trkpt lat="58.91314999200404" lon="16.269253939390182">
        <ele>66.3</ele>
        <time>2025-01-27T13:24:39.959Z</time>
      </trkpt>
      <trkpt lat="58.91310095787048" lon="16.26917799934745">
        <ele>66.29</ele>
        <time>2025-01-27T13:25:04.601Z</time>
      </trkpt>
      <trkpt lat="58.9130259398371" lon="16.26911798492074">
        <ele>66.25</ele>
        <time>2025-01-27T13:25:29.254Z</time>
      </trkpt>
      <trkpt lat="58.912850925698876" lon="16.269127959385514">
        <ele>66.16</ele>
        <time>2025-01-27T13:25:53.930Z</time>
      </trkpt>
      <trkpt lat="58.91274598427117" lon="16.269086971879005">
        <ele>66.08</ele>
        <time>2025-01-27T13:26:18.621Z</time>
      </trkpt>
      <trkpt lat="58.912671972066164" lon="16.26899099908769">
        <ele>66.01</ele>
        <time>2025-01-27T13:26:43.323Z</time>
      </trkpt>
      <trkpt lat="58.912569964304566" lon="16.26887993887067">
        <ele>65.91</ele>
        <time>2025-01-27T13:27:08.041Z</time>
      </trkpt>
      <trkpt lat="58.91241716220975" lon="16.268754713237286">
        <ele>65.74</ele>
        <time>2025-01-27T13:27:32.781Z</time>
      </trkpt>
      <trkpt lat="58.912264946848154" lon="16.268629990518093">
        <ele>65.57</ele>
        <time>2025-01-27T13:27:57.543Z</time>
      </trkpt>
      <trkpt lat="58.91206797212362" lon="16.268506944179535">
        <ele>65.39</ele>
        <time>2025-01-27T13:28:22.333Z</time>
      </trkpt>
      <trkpt lat="58.911816934123635" lon="16.268375935032964">
        <ele>65.21</ele>
        <time>2025-01-27T13:28:47.158Z</time>
      </trkpt>
      <trkpt lat="58.91165692359209" lon="16.268228916451335">
        <ele>65.06</ele>
        <time>2025-01-27T13:29:12.006Z</time>
      </trkpt>
      <trkpt lat="58.91151015646756" lon="16.26804057508707">
        <ele>64.89</ele>
        <time>2025-01-27T13:29:36.878Z</time>
      </trkpt>
      <trkpt lat="58.911363976076245" lon="16.26785298809409">
        <ele>64.7</ele>
        <time>2025-01-27T13:30:01.773Z</time>
      </trkpt>
      <trkpt lat="58.91122994944453" lon="16.267760954797268">
        <ele>64.51</ele>
        <time>2025-01-27T13:30:26.688Z</time>
      </trkpt>
      <trkpt lat="58.911109920591116" lon="16.267724996432662">
        <ele>64.3</ele>
        <time>2025-01-27T13:30:51.619Z</time>
      </trkpt>
      <trkpt lat="58.911000955849886" lon="16.26774293370545">
        <ele>64.07</ele>
        <time>2025-01-27T13:31:16.564Z</time>
      </trkpt>
      <trkpt lat="58.91088193282485" lon="16.267820969223976">
        <ele>63.83</ele>
        <time>2025-01-27T13:31:41.526Z</time>
      </trkpt>
      <trkpt lat="58.910734662786126" lon="16.267994809895754">
        <ele>63.54</ele>
        <time>2025-01-27T13:32:06.511Z</time>
      </trkpt>
      <trkpt lat="58.910587979480624" lon="16.268167980015278">
        <ele>63.22</ele>
        <time>2025-01-27T13:32:31.519Z</time>
      </trkpt>
      <trkpt lat="58.910464933142066" lon="16.268286919221282">
        <ele>62.89</ele>
        <time>2025-01-27T13:32:56.546Z</time>
      </trkpt>
      <trkpt lat="58.91035898588598" lon="16.26832497306168">
        <ele>62.53</ele>
        <time>2025-01-27T13:33:21.587Z</time>
      </trkpt>
      <trkpt lat="58.91023099422455" lon="16.268315920606256">
        <ele>62.18</ele>
        <time>2025-01-27T13:33:46.645Z</time>
      </trkpt>
      <trkpt lat="58.910095961764455" lon="16.268287925049663">
        <ele>61.8</ele>
        <time>2025-01-27T13:34:11.721Z</time>
      </trkpt>
      <trkpt lat="58.90995196066797" lon="16.268291948363185">
        <ele>61.37</ele>
        <time>2025-01-27T13:34:36.817Z</time>
      </trkpt>
      <trkpt lat="58.909857999533415" lon="16.268353974446654">
        <ele>60.89</ele>
        <time>2025-01-27T13:35:01.926Z</time>
      </trkpt>
      <trkpt lat="58.909733947366476" lon="16.26851599663496">
        <ele>60.34</ele>
        <time>2025-01-27T13:35:27.055Z</time>
      </trkpt>
      <trkpt lat="58.90963998623192" lon="16.26873593777418">
        <ele>59.71</ele>
        <time>2025-01-27T13:35:52.204Z</time>
      </trkpt>
      <trkpt lat="58.90950998291373" lon="16.26899099908769">
        <ele>59.06</ele>
        <time>2025-01-27T13:36:17.377Z</time>
      </trkpt>
      <trkpt lat="58.909280989319086" lon="16.269255951046944">
        <ele>58.35</ele>
        <time>2025-01-27T13:36:42.586Z</time>
      </trkpt>
      <trkpt lat="58.90912399627268" lon="16.269472958520055">
        <ele>57.67</ele>
        <time>2025-01-27T13:37:07.821Z</time>
      </trkpt>
      <trkpt lat="58.909023916348815" lon="16.2695499882102">
        <ele>57.13</ele>
        <time>2025-01-27T13:37:33.070Z</time>
      </trkpt>
      <trkpt lat="58.90888595022261" lon="16.269582929089665">
        <ele>56.59</ele>
        <time>2025-01-27T13:37:58.338Z</time>
      </trkpt>
      <trkpt lat="58.90873298048973" lon="16.269555939361453">
        <ele>56.07</ele>
        <time>2025-01-27T13:38:23.626Z</time>
      </trkpt>
      <trkpt lat="58.9085669349879" lon="16.269542947411537">
        <ele>55.56</ele>
        <time>2025-01-27T13:38:48.937Z</time>
      </trkpt>
      <trkpt lat="58.90838496387005" lon="16.26954898238182">
        <ele>55.12</ele>
        <time>2025-01-27T13:39:14.272Z</time>
      </trkpt>
      <trkpt lat="58.90832595527172" lon="16.269581923261285">
        <ele>54.75</ele>
        <time>2025-01-27T13:39:39.615Z</time>
      </trkpt>
      <trkpt lat="58.90825697220862" lon="16.269664987921715">
        <ele>54.41</ele>
        <time>2025-01-27T13:40:04.969Z</time>
      </trkpt>
      <trkpt lat="58.90810509212315" lon="16.269907476380467">
        <ele>54.1</ele>
        <time>2025-01-27T13:40:30.349Z</time>
      </trkpt>
      <trkpt lat="58.90795396640897" lon="16.27014895901084">
        <ele>53.84</ele>
        <time>2025-01-27T13:40:55.755Z</time>
      </trkpt>
      <trkpt lat="58.90786796808243" lon="16.270181983709335">
        <ele>53.64</ele>
        <time>2025-01-27T13:41:21.173Z</time>
      </trkpt>
      <trkpt lat="58.90784994699061" lon="16.27049395814538">
        <ele>53.57</ele>
        <time>2025-01-27T13:41:46.613Z</time>
      </trkpt>
      <trkpt lat="58.907794458791614" lon="16.27096208743751">
        <ele>53.6</ele>
        <time>2025-01-27T13:42:12.086Z</time>
      </trkpt>
      <trkpt lat="58.90773897059262" lon="16.271430300548673">
        <ele>53.69</ele>
        <time>2025-01-27T13:42:37.592Z</time>
      </trkpt>
      <trkpt lat="58.90768398530781" lon="16.271893987432122">
        <ele>53.7</ele>
        <time>2025-01-27T13:43:03.131Z</time>
      </trkpt>
      <trkpt lat="58.907571164891124" lon="16.27231366932392">
        <ele>53.58</ele>
        <time>2025-01-27T13:43:28.703Z</time>
      </trkpt>
      <trkpt lat="58.90745893120766" lon="16.2727309204638">
        <ele>53.51</ele>
        <time>2025-01-27T13:43:54.307Z</time>
      </trkpt>
      <trkpt lat="58.90729523263872" lon="16.273015988990664">
        <ele>53.5</ele>
        <time>2025-01-27T13:44:19.941Z</time>
      </trkpt>
      <trkpt lat="58.90713153406978" lon="16.273300973698497">
        <ele>53.55</ele>
        <time>2025-01-27T13:44:45.604Z</time>
      </trkpt>
      <trkpt lat="58.90696892514825" lon="16.273583946749568">
        <ele>53.67</ele>
        <time>2025-01-27T13:45:11.297Z</time>
      </trkpt>
      <trkpt lat="58.906923327594995" lon="16.273939087986946">
        <ele>53.85</ele>
        <time>2025-01-27T13:45:37.015Z</time>
      </trkpt>
      <trkpt lat="58.90687798149884" lon="16.274291966110468">
        <ele>54.07</ele>
        <time>2025-01-27T13:46:02.758Z</time>
      </trkpt>
      <trkpt lat="58.90668352134526" lon="16.27455549314618">
        <ele>54.3</ele>
        <time>2025-01-27T13:46:28.533Z</time>
      </trkpt>
      <trkpt lat="58.90648914501071" lon="16.274819104000926">
        <ele>54.55</ele>
        <time>2025-01-27T13:46:54.340Z</time>
      </trkpt>
      <trkpt lat="58.906295942142606" lon="16.275080954656005">
        <ele>54.82</ele>
        <time>2025-01-27T13:47:20.178Z</time>
      </trkpt>
      <trkpt lat="58.90611254610121" lon="16.275333501398563">
        <ele>55.07</ele>
        <time>2025-01-27T13:47:46.046Z</time>
      </trkpt>
      <trkpt lat="58.90592915005982" lon="16.275586048141122">
        <ele>55.35</ele>
        <time>2025-01-27T13:48:11.944Z</time>
      </trkpt>
      <trkpt lat="58.90574692748487" lon="16.275836918503046">
        <ele>55.69</ele>
        <time>2025-01-27T13:48:37.872Z</time>
      </trkpt>
      <trkpt lat="58.905576104298234" lon="16.276054428890347">
        <ele>56.11</ele>
        <time>2025-01-27T13:49:03.828Z</time>
      </trkpt>
      <trkpt lat="58.90540595166385" lon="16.27627093344927">
        <ele>56.55</ele>
        <time>2025-01-27T13:49:29.811Z</time>
      </trkpt>
      <trkpt lat="58.90518995001912" lon="16.276061972603202">
        <ele>56.95</ele>
        <time>2025-01-27T13:49:55.826Z</time>
      </trkpt>
      <trkpt lat="58.90490295365453" lon="16.276215193793178">
        <ele>57.43</ele>
        <time>2025-01-27T13:50:21.881Z</time>
      </trkpt>
      <trkpt lat="58.904616963118315" lon="16.276367995887995">
        <ele>57.81</ele>
        <time>2025-01-27T13:50:47.975Z</time>
      </trkpt>
      <trkpt lat="58.90439207665622" lon="16.276537226513028">
        <ele>58.25</ele>
        <time>2025-01-27T13:51:14.102Z</time>
      </trkpt>
      <trkpt lat="58.90416719019413" lon="16.276706540957093">
        <ele>58.65</ele>
        <time>2025-01-27T13:51:40.261Z</time>
      </trkpt>
      <trkpt lat="58.90394230373204" lon="16.27687585540116">
        <ele>58.99</ele>
        <time>2025-01-27T13:52:06.452Z</time>
      </trkpt>
      <trkpt lat="58.903718926012516" lon="16.27704399637878">
        <ele>59.21</ele>
        <time>2025-01-27T13:52:32.675Z</time>
      </trkpt>
      <trkpt lat="58.9034884236753" lon="16.277431156486273">
        <ele>59.41</ele>
        <time>2025-01-27T13:52:58.939Z</time>
      </trkpt>
      <trkpt lat="58.90325792133808" lon="16.277818400412798">
        <ele>59.54</ele>
        <time>2025-01-27T13:53:25.244Z</time>
      </trkpt>
      <trkpt lat="58.903028927743435" lon="16.278202962130308">
        <ele>59.47</ele>
        <time>2025-01-27T13:53:51.590Z</time>
      </trkpt>
      <trkpt lat="58.902846202254295" lon="16.278130374848843">
        <ele>59.28</ele>
        <time>2025-01-27T13:54:17.960Z</time>
      </trkpt>
      <trkpt lat="58.902663979679346" lon="16.27805795520544">
        <ele>59.02</ele>
        <time>2025-01-27T13:54:44.355Z</time>
      </trkpt>
      <trkpt lat="58.90249986201525" lon="16.27844494767487">
        <ele>58.71</ele>
        <time>2025-01-27T13:55:10.785Z</time>
      </trkpt>
      <trkpt lat="58.90233574435115" lon="16.2788319401443">
        <ele>58.4</ele>
        <time>2025-01-27T13:55:37.250Z</time>
      </trkpt>
      <trkpt lat="58.90217296779156" lon="16.27921599894762">
        <ele>57.98</ele>
        <time>2025-01-27T13:56:03.749Z</time>
      </trkpt>
      <trkpt lat="58.902014968916774" lon="16.279376931488514">
        <ele>57.6</ele>
        <time>2025-01-27T13:56:30.272Z</time>
      </trkpt>
      <trkpt lat="58.90177625231445" lon="16.27932890318334">
        <ele>57.27</ele>
        <time>2025-01-27T13:56:56.827Z</time>
      </trkpt>
      <trkpt lat="58.90153753571212" lon="16.279280791059136">
        <ele>56.83</ele>
        <time>2025-01-27T13:57:23.414Z</time>
      </trkpt>
      <trkpt lat="58.90129999257624" lon="16.279232930392027">
        <ele>56.41</ele>
        <time>2025-01-27T13:57:50.033Z</time>
      </trkpt>
      <trkpt lat="58.901075944304466" lon="16.279425965622067">
        <ele>56.03</ele>
        <time>2025-01-27T13:58:16.685Z</time>
      </trkpt>
      <trkpt lat="58.90083856880665" lon="16.279353378340602">
        <ele>55.57</ele>
        <time>2025-01-27T13:58:43.369Z</time>
      </trkpt>
      <trkpt lat="58.900601947680116" lon="16.2792809586972">
        <ele>55.19</ele>
        <time>2025-01-27T13:59:10.085Z</time>
      </trkpt>
      <trkpt lat="58.90041897073388" lon="16.279586981981993">
        <ele>55.07</ele>
        <time>2025-01-27T13:59:36.833Z</time>
      </trkpt>
      <trkpt lat="58.900343952700496" lon="16.280101966112852">
        <ele>55.22</ele>
        <time>2025-01-27T14:00:03.618Z</time>
      </trkpt>
      <trkpt lat="58.900223169475794" lon="16.280416287481785">
        <ele>55.41</ele>
        <time>2025-01-27T14:00:30.430Z</time>
      </trkpt>
      <trkpt lat="58.900102972984314" lon="16.280728932470083">
        <ele>55.76</ele>
        <time>2025-01-27T14:00:57.269Z</time>
      </trkpt>
      <trkpt lat="58.900127951055765" lon="16.281114919111133">
        <ele>56.33</ele>
        <time>2025-01-27T14:01:24.135Z</time>
      </trkpt>
      <trkpt lat="58.900048742070794" lon="16.281688241288066">
        <ele>56.87</ele>
        <time>2025-01-27T14:01:51.042Z</time>
      </trkpt>
      <trkpt lat="58.89996995218098" lon="16.282257959246635">
        <ele>57.39</ele>
        <time>2025-01-27T14:02:17.990Z</time>
      </trkpt>
      <trkpt lat="58.90011998824775" lon="16.282595917582512">
        <ele>57.95</ele>
        <time>2025-01-27T14:02:44.969Z</time>
      </trkpt>
      <trkpt lat="58.900127951055765" lon="16.28299799747765">
        <ele>58.39</ele>
        <time>2025-01-27T14:03:11.976Z</time>
      </trkpt>
      <trkpt lat="58.900028206408024" lon="16.283377530053258">
        <ele>58.73</ele>
        <time>2025-01-27T14:03:39.012Z</time>
      </trkpt>
      <trkpt lat="58.89992896467447" lon="16.283754967153072">
        <ele>59.03</ele>
        <time>2025-01-27T14:04:06.077Z</time>
      </trkpt>
      <trkpt lat="58.89972905628383" lon="16.283980440348387">
        <ele>59.29</ele>
        <time>2025-01-27T14:04:33.173Z</time>
      </trkpt>
      <trkpt lat="58.89952998608351" lon="16.284204991534352">
        <ele>59.57</ele>
        <time>2025-01-27T14:05:00.300Z</time>
      </trkpt>
      <trkpt lat="58.89954247511923" lon="16.284721652045846">
        <ele>60.08</ele>
        <time>2025-01-27T14:05:27.463Z</time>
      </trkpt>
      <trkpt lat="58.89955496415496" lon="16.28523495979607">
        <ele>60.55</ele>
        <time>2025-01-27T14:05:54.661Z</time>
      </trkpt>
      <trkpt lat="58.899654960259795" lon="16.285733934491873">
        <ele>60.96</ele>
        <time>2025-01-27T14:06:21.896Z</time>
      </trkpt>
      <trkpt lat="58.89957994222641" lon="16.286313962191343">
        <ele>61.3</ele>
        <time>2025-01-27T14:06:49.173Z</time>
      </trkpt>
      <trkpt lat="58.8993629347533" lon="16.286724926903844">
        <ele>61.47</ele>
        <time>2025-01-27T14:07:16.490Z</time>
      </trkpt>
      <trkpt lat="58.89914693310857" lon="16.287133963778615">
        <ele>61.58</ele>
        <time>2025-01-27T14:07:43.848Z</time>
      </trkpt>
      <trkpt lat="58.89904433861375" lon="16.287500001490116">
        <ele>61.72</ele>
        <time>2025-01-27T14:08:11.235Z</time>
      </trkpt>
      <trkpt lat="58.8989416602999" lon="16.287866039201617">
        <ele>61.73</ele>
        <time>2025-01-27T14:08:38.650Z</time>
      </trkpt>
      <trkpt lat="58.898839987814426" lon="16.288228975608945">
        <ele>61.75</ele>
        <time>2025-01-27T14:09:06.094Z</time>
      </trkpt>
      <trkpt lat="58.89861359260976" lon="16.288393260911107">
        <ele>61.78</ele>
        <time>2025-01-27T14:09:33.570Z</time>
      </trkpt>
      <trkpt lat="58.89839507639408" lon="16.28855176270008">
        <ele>61.66</ele>
        <time>2025-01-27T14:10:01.077Z</time>
      </trkpt>
      <trkpt lat="58.898387951776385" lon="16.288556959480047">
        <ele>61.43</ele>
        <time>2025-01-27T14:10:28.585Z</time>
      </trkpt>
      <trkpt lat="58.898177398368716" lon="16.288645388558507">
        <ele>61.09</ele>
        <time>2025-01-27T14:10:56.122Z</time>
      </trkpt>
      <trkpt lat="58.898127023130655" lon="16.28866659477353">
        <ele>60.57</ele>
        <time>2025-01-27T14:11:23.666Z</time>
      </trkpt>
      <trkpt lat="58.89786693267524" lon="16.28877597860992">
        <ele>59.86</ele>
        <time>2025-01-27T14:11:51.246Z</time>
      </trkpt>
      <trkpt lat="58.89760893769562" lon="16.2890169583261">
        <ele>58.99</ele>
        <time>2025-01-27T14:12:18.864Z</time>
      </trkpt>
      <trkpt lat="58.89746761880815" lon="16.28932373598218">
        <ele>58.18</ele>
        <time>2025-01-27T14:12:46.510Z</time>
      </trkpt>
      <trkpt lat="58.89732697047293" lon="16.289628921076655">
        <ele>57.46</ele>
        <time>2025-01-27T14:13:14.185Z</time>
      </trkpt>
      <trkpt lat="58.89706796966493" lon="16.289942990988493">
        <ele>56.95</ele>
        <time>2025-01-27T14:13:41.901Z</time>
      </trkpt>
      <trkpt lat="58.8968469388783" lon="16.289960676804185">
        <ele>56.84</ele>
        <time>2025-01-27T14:14:09.646Z</time>
      </trkpt>
      <trkpt lat="58.896625991910696" lon="16.289978362619877">
        <ele>56.75</ele>
        <time>2025-01-27T14:14:37.421Z</time>
      </trkpt>
      <trkpt lat="58.896417785435915" lon="16.289994288235903">
        <ele>56.62</ele>
        <time>2025-01-27T14:15:05.224Z</time>
      </trkpt>
    </trkseg>
  </trk>
</gpx>
